<?xml version="1.0" encoding="UTF-8" standalone="no" ?>
<gpx xmlns="http://www.topografix.com/GPX/1/1" xmlns:xsi="http://www.w3.org/2001/XMLSchema-instance" xsi:schemaLocation="http://www.topografix.com/GPX/1/1 http://www.topografix.com/GPX/1/1/gpx.xsd" version="1.1" creator="VisuGPX - https://www.visugpx.com">
  <metadata>
    <name>reprise vtt</name>
    <desc><![CDATA[reprise vtt portage descente de zongo]]></desc>
  </metadata>
  <trk>
    <name><![CDATA[Reprise VTT chauve zongo]]></name>
    <desc><![CDATA[(null)]]></desc>
    <trkseg>
      <trkpt lat="43.73861" lon="7.28722">
        <ele>55</ele>
        <time>2011-03-26T12:56:07Z</time>
      </trkpt>
      <trkpt lat="43.73861" lon="7.28722">
        <ele>55</ele>
        <time>2011-03-26T12:56:07Z</time>
      </trkpt>
      <trkpt lat="43.74278" lon="7.25849">
        <ele>313</ele>
        <time>2011-03-26T12:56:36Z</time>
      </trkpt>
      <trkpt lat="43.74278" lon="7.25849">
        <ele>313</ele>
        <time>2011-03-26T12:56:42Z</time>
      </trkpt>
      <trkpt lat="43.74278" lon="7.25849">
        <ele>313</ele>
        <time>2011-03-26T12:56:47Z</time>
      </trkpt>
      <trkpt lat="43.74252" lon="7.25838">
        <ele>400</ele>
        <time>2011-03-26T12:56:56Z</time>
      </trkpt>
      <trkpt lat="43.74246" lon="7.25827">
        <ele>400</ele>
        <time>2011-03-26T12:57:02Z</time>
      </trkpt>
      <trkpt lat="43.74239" lon="7.25817">
        <ele>400</ele>
        <time>2011-03-26T12:57:07Z</time>
      </trkpt>
      <trkpt lat="43.74231" lon="7.25805">
        <ele>400</ele>
        <time>2011-03-26T12:57:13Z</time>
      </trkpt>
      <trkpt lat="43.7422" lon="7.25786">
        <ele>402</ele>
        <time>2011-03-26T12:57:23Z</time>
      </trkpt>
      <trkpt lat="43.74213" lon="7.25774">
        <ele>404</ele>
        <time>2011-03-26T12:57:30Z</time>
      </trkpt>
      <trkpt lat="43.74204" lon="7.25747">
        <ele>404</ele>
        <time>2011-03-26T12:57:44Z</time>
      </trkpt>
      <trkpt lat="43.74201" lon="7.25735">
        <ele>405</ele>
        <time>2011-03-26T12:57:51Z</time>
      </trkpt>
      <trkpt lat="43.74199" lon="7.25722">
        <ele>405</ele>
        <time>2011-03-26T12:57:59Z</time>
      </trkpt>
      <trkpt lat="43.74199" lon="7.25717">
        <ele>405</ele>
        <time>2011-03-26T12:58:12Z</time>
      </trkpt>
      <trkpt lat="43.74203" lon="7.25705">
        <ele>406</ele>
        <time>2011-03-26T12:58:23Z</time>
      </trkpt>
      <trkpt lat="43.74205" lon="7.25691">
        <ele>409</ele>
        <time>2011-03-26T12:58:36Z</time>
      </trkpt>
      <trkpt lat="43.74211" lon="7.25681">
        <ele>411</ele>
        <time>2011-03-26T12:58:44Z</time>
      </trkpt>
      <trkpt lat="43.74216" lon="7.25671">
        <ele>415</ele>
        <time>2011-03-26T12:58:52Z</time>
      </trkpt>
      <trkpt lat="43.74221" lon="7.25659">
        <ele>417</ele>
        <time>2011-03-26T12:58:59Z</time>
      </trkpt>
      <trkpt lat="43.74223" lon="7.25649">
        <ele>419</ele>
        <time>2011-03-26T12:59:05Z</time>
      </trkpt>
      <trkpt lat="43.74223" lon="7.25636">
        <ele>420</ele>
        <time>2011-03-26T12:59:11Z</time>
      </trkpt>
      <trkpt lat="43.74223" lon="7.25622">
        <ele>422</ele>
        <time>2011-03-26T12:59:17Z</time>
      </trkpt>
      <trkpt lat="43.74221" lon="7.25608">
        <ele>422</ele>
        <time>2011-03-26T12:59:25Z</time>
      </trkpt>
      <trkpt lat="43.74215" lon="7.2559">
        <ele>430</ele>
        <time>2011-03-26T12:59:41Z</time>
      </trkpt>
      <trkpt lat="43.74214" lon="7.25571">
        <ele>434</ele>
        <time>2011-03-26T12:59:53Z</time>
      </trkpt>
      <trkpt lat="43.7422" lon="7.25559">
        <ele>437</ele>
        <time>2011-03-26T13:00:03Z</time>
      </trkpt>
      <trkpt lat="43.74222" lon="7.25553">
        <ele>437</ele>
        <time>2011-03-26T13:00:06Z</time>
      </trkpt>
      <trkpt lat="43.74226" lon="7.25542">
        <ele>436</ele>
        <time>2011-03-26T13:00:11Z</time>
      </trkpt>
      <trkpt lat="43.74233" lon="7.25524">
        <ele>439</ele>
        <time>2011-03-26T13:00:19Z</time>
      </trkpt>
      <trkpt lat="43.74233" lon="7.25501">
        <ele>444</ele>
        <time>2011-03-26T13:00:29Z</time>
      </trkpt>
      <trkpt lat="43.7423" lon="7.25488">
        <ele>445</ele>
        <time>2011-03-26T13:00:36Z</time>
      </trkpt>
      <trkpt lat="43.74229" lon="7.25484">
        <ele>446</ele>
        <time>2011-03-26T13:00:38Z</time>
      </trkpt>
      <trkpt lat="43.74225" lon="7.25471">
        <ele>447</ele>
        <time>2011-03-26T13:00:45Z</time>
      </trkpt>
      <trkpt lat="43.74218" lon="7.25452">
        <ele>448</ele>
        <time>2011-03-26T13:00:58Z</time>
      </trkpt>
      <trkpt lat="43.74217" lon="7.25449">
        <ele>451</ele>
        <time>2011-03-26T13:01:02Z</time>
      </trkpt>
      <trkpt lat="43.74216" lon="7.25433">
        <ele>453</ele>
        <time>2011-03-26T13:01:09Z</time>
      </trkpt>
      <trkpt lat="43.7421" lon="7.25417">
        <ele>455</ele>
        <time>2011-03-26T13:01:20Z</time>
      </trkpt>
      <trkpt lat="43.7422" lon="7.25419">
        <ele>454</ele>
        <time>2011-03-26T13:03:42Z</time>
      </trkpt>
      <trkpt lat="43.74225" lon="7.25431">
        <ele>454</ele>
        <time>2011-03-26T13:03:46Z</time>
      </trkpt>
      <trkpt lat="43.7423" lon="7.25444">
        <ele>453</ele>
        <time>2011-03-26T13:03:50Z</time>
      </trkpt>
      <trkpt lat="43.74234" lon="7.25456">
        <ele>453</ele>
        <time>2011-03-26T13:03:53Z</time>
      </trkpt>
      <trkpt lat="43.74236" lon="7.2547">
        <ele>452</ele>
        <time>2011-03-26T13:03:58Z</time>
      </trkpt>
      <trkpt lat="43.74236" lon="7.25472">
        <ele>452</ele>
        <time>2011-03-26T13:03:58Z</time>
      </trkpt>
      <trkpt lat="43.74235" lon="7.25485">
        <ele>451</ele>
        <time>2011-03-26T13:04:03Z</time>
      </trkpt>
      <trkpt lat="43.74237" lon="7.25499">
        <ele>449</ele>
        <time>2011-03-26T13:04:08Z</time>
      </trkpt>
      <trkpt lat="43.74243" lon="7.25509">
        <ele>448</ele>
        <time>2011-03-26T13:04:13Z</time>
      </trkpt>
      <trkpt lat="43.74242" lon="7.25522">
        <ele>443</ele>
        <time>2011-03-26T13:04:22Z</time>
      </trkpt>
      <trkpt lat="43.74236" lon="7.25532">
        <ele>442</ele>
        <time>2011-03-26T13:04:30Z</time>
      </trkpt>
      <trkpt lat="43.74228" lon="7.25539">
        <ele>443</ele>
        <time>2011-03-26T13:04:35Z</time>
      </trkpt>
      <trkpt lat="43.74232" lon="7.25552">
        <ele>443</ele>
        <time>2011-03-26T13:04:44Z</time>
      </trkpt>
      <trkpt lat="43.74243" lon="7.25553">
        <ele>445</ele>
        <time>2011-03-26T13:04:48Z</time>
      </trkpt>
      <trkpt lat="43.74253" lon="7.25556">
        <ele>446</ele>
        <time>2011-03-26T13:04:54Z</time>
      </trkpt>
      <trkpt lat="43.74263" lon="7.2556">
        <ele>447</ele>
        <time>2011-03-26T13:05:00Z</time>
      </trkpt>
      <trkpt lat="43.74271" lon="7.25569">
        <ele>449</ele>
        <time>2011-03-26T13:05:08Z</time>
      </trkpt>
      <trkpt lat="43.74277" lon="7.25579">
        <ele>450</ele>
        <time>2011-03-26T13:05:13Z</time>
      </trkpt>
      <trkpt lat="43.74278" lon="7.25584">
        <ele>450</ele>
        <time>2011-03-26T13:05:14Z</time>
      </trkpt>
      <trkpt lat="43.74281" lon="7.25598">
        <ele>449</ele>
        <time>2011-03-26T13:05:18Z</time>
      </trkpt>
      <trkpt lat="43.74283" lon="7.25611">
        <ele>447</ele>
        <time>2011-03-26T13:05:21Z</time>
      </trkpt>
      <trkpt lat="43.74289" lon="7.25621">
        <ele>445</ele>
        <time>2011-03-26T13:05:25Z</time>
      </trkpt>
      <trkpt lat="43.74297" lon="7.25624">
        <ele>443</ele>
        <time>2011-03-26T13:05:29Z</time>
      </trkpt>
      <trkpt lat="43.74308" lon="7.25627">
        <ele>441</ele>
        <time>2011-03-26T13:05:33Z</time>
      </trkpt>
      <trkpt lat="43.74318" lon="7.25625">
        <ele>439</ele>
        <time>2011-03-26T13:05:38Z</time>
      </trkpt>
      <trkpt lat="43.7432" lon="7.25625">
        <ele>439</ele>
        <time>2011-03-26T13:05:38Z</time>
      </trkpt>
      <trkpt lat="43.7433" lon="7.25627">
        <ele>439</ele>
        <time>2011-03-26T13:05:44Z</time>
      </trkpt>
      <trkpt lat="43.74333" lon="7.2563">
        <ele>439</ele>
        <time>2011-03-26T13:05:46Z</time>
      </trkpt>
      <trkpt lat="43.74339" lon="7.25641">
        <ele>437</ele>
        <time>2011-03-26T13:05:52Z</time>
      </trkpt>
      <trkpt lat="43.74344" lon="7.25644">
        <ele>437</ele>
        <time>2011-03-26T13:05:54Z</time>
      </trkpt>
      <trkpt lat="43.74353" lon="7.25649">
        <ele>437</ele>
        <time>2011-03-26T13:05:59Z</time>
      </trkpt>
      <trkpt lat="43.74363" lon="7.25651">
        <ele>437</ele>
        <time>2011-03-26T13:06:03Z</time>
      </trkpt>
      <trkpt lat="43.74373" lon="7.25654">
        <ele>437</ele>
        <time>2011-03-26T13:06:07Z</time>
      </trkpt>
      <trkpt lat="43.74383" lon="7.25655">
        <ele>437</ele>
        <time>2011-03-26T13:06:12Z</time>
      </trkpt>
      <trkpt lat="43.74387" lon="7.25654">
        <ele>436</ele>
        <time>2011-03-26T13:06:14Z</time>
      </trkpt>
      <trkpt lat="43.74397" lon="7.25651">
        <ele>435</ele>
        <time>2011-03-26T13:06:19Z</time>
      </trkpt>
      <trkpt lat="43.74405" lon="7.25644">
        <ele>435</ele>
        <time>2011-03-26T13:06:24Z</time>
      </trkpt>
      <trkpt lat="43.74414" lon="7.25642">
        <ele>436</ele>
        <time>2011-03-26T13:06:29Z</time>
      </trkpt>
      <trkpt lat="43.74424" lon="7.25642">
        <ele>435</ele>
        <time>2011-03-26T13:06:34Z</time>
      </trkpt>
      <trkpt lat="43.74434" lon="7.25641">
        <ele>436</ele>
        <time>2011-03-26T13:06:39Z</time>
      </trkpt>
      <trkpt lat="43.74443" lon="7.25644">
        <ele>437</ele>
        <time>2011-03-26T13:06:44Z</time>
      </trkpt>
      <trkpt lat="43.74447" lon="7.25647">
        <ele>438</ele>
        <time>2011-03-26T13:06:47Z</time>
      </trkpt>
      <trkpt lat="43.74456" lon="7.25645">
        <ele>440</ele>
        <time>2011-03-26T13:06:55Z</time>
      </trkpt>
      <trkpt lat="43.74466" lon="7.25638">
        <ele>441</ele>
        <time>2011-03-26T13:07:00Z</time>
      </trkpt>
      <trkpt lat="43.74475" lon="7.25633">
        <ele>442</ele>
        <time>2011-03-26T13:07:04Z</time>
      </trkpt>
      <trkpt lat="43.74484" lon="7.25628">
        <ele>441</ele>
        <time>2011-03-26T13:07:09Z</time>
      </trkpt>
      <trkpt lat="43.74492" lon="7.25621">
        <ele>441</ele>
        <time>2011-03-26T13:07:14Z</time>
      </trkpt>
      <trkpt lat="43.74501" lon="7.25615">
        <ele>441</ele>
        <time>2011-03-26T13:07:18Z</time>
      </trkpt>
      <trkpt lat="43.74511" lon="7.25615">
        <ele>442</ele>
        <time>2011-03-26T13:07:24Z</time>
      </trkpt>
      <trkpt lat="43.74514" lon="7.25616">
        <ele>442</ele>
        <time>2011-03-26T13:07:25Z</time>
      </trkpt>
      <trkpt lat="43.74523" lon="7.25616">
        <ele>443</ele>
        <time>2011-03-26T13:07:30Z</time>
      </trkpt>
      <trkpt lat="43.74533" lon="7.25615">
        <ele>444</ele>
        <time>2011-03-26T13:07:35Z</time>
      </trkpt>
      <trkpt lat="43.74542" lon="7.25614">
        <ele>444</ele>
        <time>2011-03-26T13:07:40Z</time>
      </trkpt>
      <trkpt lat="43.74551" lon="7.25621">
        <ele>445</ele>
        <time>2011-03-26T13:07:46Z</time>
      </trkpt>
      <trkpt lat="43.7456" lon="7.25625">
        <ele>447</ele>
        <time>2011-03-26T13:07:55Z</time>
      </trkpt>
      <trkpt lat="43.74561" lon="7.25623">
        <ele>448</ele>
        <time>2011-03-26T13:07:59Z</time>
      </trkpt>
      <trkpt lat="43.74573" lon="7.25627">
        <ele>450</ele>
        <time>2011-03-26T13:08:13Z</time>
      </trkpt>
      <trkpt lat="43.74574" lon="7.25627">
        <ele>450</ele>
        <time>2011-03-26T13:08:15Z</time>
      </trkpt>
      <trkpt lat="43.74584" lon="7.25625">
        <ele>451</ele>
        <time>2011-03-26T13:08:21Z</time>
      </trkpt>
      <trkpt lat="43.74594" lon="7.25623">
        <ele>452</ele>
        <time>2011-03-26T13:08:26Z</time>
      </trkpt>
      <trkpt lat="43.74603" lon="7.25625">
        <ele>452</ele>
        <time>2011-03-26T13:08:31Z</time>
      </trkpt>
      <trkpt lat="43.74613" lon="7.25622">
        <ele>452</ele>
        <time>2011-03-26T13:08:36Z</time>
      </trkpt>
      <trkpt lat="43.74622" lon="7.2562">
        <ele>452</ele>
        <time>2011-03-26T13:08:39Z</time>
      </trkpt>
      <trkpt lat="43.74632" lon="7.25615">
        <ele>452</ele>
        <time>2011-03-26T13:08:43Z</time>
      </trkpt>
      <trkpt lat="43.74641" lon="7.25609">
        <ele>452</ele>
        <time>2011-03-26T13:08:47Z</time>
      </trkpt>
      <trkpt lat="43.74651" lon="7.25607">
        <ele>453</ele>
        <time>2011-03-26T13:08:51Z</time>
      </trkpt>
      <trkpt lat="43.7466" lon="7.25609">
        <ele>453</ele>
        <time>2011-03-26T13:08:55Z</time>
      </trkpt>
      <trkpt lat="43.7467" lon="7.25606">
        <ele>454</ele>
        <time>2011-03-26T13:08:59Z</time>
      </trkpt>
      <trkpt lat="43.74679" lon="7.25601">
        <ele>454</ele>
        <time>2011-03-26T13:09:02Z</time>
      </trkpt>
      <trkpt lat="43.7469" lon="7.25598">
        <ele>454</ele>
        <time>2011-03-26T13:09:07Z</time>
      </trkpt>
      <trkpt lat="43.747" lon="7.25596">
        <ele>454</ele>
        <time>2011-03-26T13:09:11Z</time>
      </trkpt>
      <trkpt lat="43.7471" lon="7.25589">
        <ele>455</ele>
        <time>2011-03-26T13:09:15Z</time>
      </trkpt>
      <trkpt lat="43.7472" lon="7.25581">
        <ele>455</ele>
        <time>2011-03-26T13:09:18Z</time>
      </trkpt>
      <trkpt lat="43.74729" lon="7.25577">
        <ele>455</ele>
        <time>2011-03-26T13:09:22Z</time>
      </trkpt>
      <trkpt lat="43.74738" lon="7.25576">
        <ele>456</ele>
        <time>2011-03-26T13:09:27Z</time>
      </trkpt>
      <trkpt lat="43.74747" lon="7.25575">
        <ele>456</ele>
        <time>2011-03-26T13:09:32Z</time>
      </trkpt>
      <trkpt lat="43.74757" lon="7.25576">
        <ele>457</ele>
        <time>2011-03-26T13:09:37Z</time>
      </trkpt>
      <trkpt lat="43.74767" lon="7.25574">
        <ele>458</ele>
        <time>2011-03-26T13:09:42Z</time>
      </trkpt>
      <trkpt lat="43.7477" lon="7.25574">
        <ele>457</ele>
        <time>2011-03-26T13:09:43Z</time>
      </trkpt>
      <trkpt lat="43.74779" lon="7.25576">
        <ele>458</ele>
        <time>2011-03-26T13:09:48Z</time>
      </trkpt>
      <trkpt lat="43.74789" lon="7.25575">
        <ele>458</ele>
        <time>2011-03-26T13:09:53Z</time>
      </trkpt>
      <trkpt lat="43.74799" lon="7.25574">
        <ele>459</ele>
        <time>2011-03-26T13:09:57Z</time>
      </trkpt>
      <trkpt lat="43.74809" lon="7.25573">
        <ele>460</ele>
        <time>2011-03-26T13:10:02Z</time>
      </trkpt>
      <trkpt lat="43.74819" lon="7.25572">
        <ele>460</ele>
        <time>2011-03-26T13:10:06Z</time>
      </trkpt>
      <trkpt lat="43.74828" lon="7.25572">
        <ele>460</ele>
        <time>2011-03-26T13:10:10Z</time>
      </trkpt>
      <trkpt lat="43.74837" lon="7.25571">
        <ele>460</ele>
        <time>2011-03-26T13:10:14Z</time>
      </trkpt>
      <trkpt lat="43.74846" lon="7.25569">
        <ele>460</ele>
        <time>2011-03-26T13:10:18Z</time>
      </trkpt>
      <trkpt lat="43.74856" lon="7.25567">
        <ele>461</ele>
        <time>2011-03-26T13:10:22Z</time>
      </trkpt>
      <trkpt lat="43.74866" lon="7.25568">
        <ele>460</ele>
        <time>2011-03-26T13:10:27Z</time>
      </trkpt>
      <trkpt lat="43.74876" lon="7.25571">
        <ele>460</ele>
        <time>2011-03-26T13:10:32Z</time>
      </trkpt>
      <trkpt lat="43.74886" lon="7.25569">
        <ele>461</ele>
        <time>2011-03-26T13:10:36Z</time>
      </trkpt>
      <trkpt lat="43.74895" lon="7.25568">
        <ele>461</ele>
        <time>2011-03-26T13:10:40Z</time>
      </trkpt>
      <trkpt lat="43.74904" lon="7.25566">
        <ele>461</ele>
        <time>2011-03-26T13:10:43Z</time>
      </trkpt>
      <trkpt lat="43.74914" lon="7.25564">
        <ele>461</ele>
        <time>2011-03-26T13:10:47Z</time>
      </trkpt>
      <trkpt lat="43.74925" lon="7.25562">
        <ele>461</ele>
        <time>2011-03-26T13:10:51Z</time>
      </trkpt>
      <trkpt lat="43.74935" lon="7.2556">
        <ele>460</ele>
        <time>2011-03-26T13:10:54Z</time>
      </trkpt>
      <trkpt lat="43.74945" lon="7.25562">
        <ele>460</ele>
        <time>2011-03-26T13:10:58Z</time>
      </trkpt>
      <trkpt lat="43.74954" lon="7.25562">
        <ele>460</ele>
        <time>2011-03-26T13:11:01Z</time>
      </trkpt>
      <trkpt lat="43.74964" lon="7.25558">
        <ele>460</ele>
        <time>2011-03-26T13:11:06Z</time>
      </trkpt>
      <trkpt lat="43.74974" lon="7.25556">
        <ele>459</ele>
        <time>2011-03-26T13:11:10Z</time>
      </trkpt>
      <trkpt lat="43.74983" lon="7.25553">
        <ele>459</ele>
        <time>2011-03-26T13:11:14Z</time>
      </trkpt>
      <trkpt lat="43.7499" lon="7.25552">
        <ele>459</ele>
        <time>2011-03-26T13:11:17Z</time>
      </trkpt>
      <trkpt lat="43.75" lon="7.25551">
        <ele>459</ele>
        <time>2011-03-26T13:11:22Z</time>
      </trkpt>
      <trkpt lat="43.7501" lon="7.25548">
        <ele>459</ele>
        <time>2011-03-26T13:11:25Z</time>
      </trkpt>
      <trkpt lat="43.75015" lon="7.25546">
        <ele>460</ele>
        <time>2011-03-26T13:11:28Z</time>
      </trkpt>
      <trkpt lat="43.75026" lon="7.25543">
        <ele>461</ele>
        <time>2011-03-26T13:11:32Z</time>
      </trkpt>
      <trkpt lat="43.75035" lon="7.25539">
        <ele>462</ele>
        <time>2011-03-26T13:11:37Z</time>
      </trkpt>
      <trkpt lat="43.75038" lon="7.25538">
        <ele>461</ele>
        <time>2011-03-26T13:11:38Z</time>
      </trkpt>
      <trkpt lat="43.75047" lon="7.25534">
        <ele>461</ele>
        <time>2011-03-26T13:11:44Z</time>
      </trkpt>
      <trkpt lat="43.75055" lon="7.2553">
        <ele>461</ele>
        <time>2011-03-26T13:11:50Z</time>
      </trkpt>
      <trkpt lat="43.75064" lon="7.25527">
        <ele>462</ele>
        <time>2011-03-26T13:11:56Z</time>
      </trkpt>
      <trkpt lat="43.75073" lon="7.25527">
        <ele>462</ele>
        <time>2011-03-26T13:12:02Z</time>
      </trkpt>
      <trkpt lat="43.7508" lon="7.25526">
        <ele>463</ele>
        <time>2011-03-26T13:12:07Z</time>
      </trkpt>
      <trkpt lat="43.75089" lon="7.25526">
        <ele>463</ele>
        <time>2011-03-26T13:12:16Z</time>
      </trkpt>
      <trkpt lat="43.75098" lon="7.25523">
        <ele>464</ele>
        <time>2011-03-26T13:12:22Z</time>
      </trkpt>
      <trkpt lat="43.75107" lon="7.25518">
        <ele>464</ele>
        <time>2011-03-26T13:12:27Z</time>
      </trkpt>
      <trkpt lat="43.75114" lon="7.25508">
        <ele>464</ele>
        <time>2011-03-26T13:12:31Z</time>
      </trkpt>
      <trkpt lat="43.75117" lon="7.25496">
        <ele>465</ele>
        <time>2011-03-26T13:12:35Z</time>
      </trkpt>
      <trkpt lat="43.7512" lon="7.25485">
        <ele>464</ele>
        <time>2011-03-26T13:12:38Z</time>
      </trkpt>
      <trkpt lat="43.75124" lon="7.25473">
        <ele>465</ele>
        <time>2011-03-26T13:12:42Z</time>
      </trkpt>
      <trkpt lat="43.75129" lon="7.25461">
        <ele>465</ele>
        <time>2011-03-26T13:12:46Z</time>
      </trkpt>
      <trkpt lat="43.75131" lon="7.25454">
        <ele>461</ele>
        <time>2011-03-26T13:13:07Z</time>
      </trkpt>
      <trkpt lat="43.75136" lon="7.25441">
        <ele>461</ele>
        <time>2011-03-26T13:13:13Z</time>
      </trkpt>
      <trkpt lat="43.75141" lon="7.2543">
        <ele>461</ele>
        <time>2011-03-26T13:13:18Z</time>
      </trkpt>
      <trkpt lat="43.75147" lon="7.2542">
        <ele>463</ele>
        <time>2011-03-26T13:13:23Z</time>
      </trkpt>
      <trkpt lat="43.75153" lon="7.2541">
        <ele>463</ele>
        <time>2011-03-26T13:13:29Z</time>
      </trkpt>
      <trkpt lat="43.75159" lon="7.254">
        <ele>464</ele>
        <time>2011-03-26T13:13:34Z</time>
      </trkpt>
      <trkpt lat="43.75166" lon="7.25391">
        <ele>465</ele>
        <time>2011-03-26T13:13:40Z</time>
      </trkpt>
      <trkpt lat="43.75173" lon="7.25382">
        <ele>465</ele>
        <time>2011-03-26T13:13:45Z</time>
      </trkpt>
      <trkpt lat="43.75181" lon="7.25374">
        <ele>466</ele>
        <time>2011-03-26T13:13:50Z</time>
      </trkpt>
      <trkpt lat="43.7519" lon="7.25366">
        <ele>466</ele>
        <time>2011-03-26T13:13:55Z</time>
      </trkpt>
      <trkpt lat="43.75198" lon="7.25361">
        <ele>467</ele>
        <time>2011-03-26T13:14:00Z</time>
      </trkpt>
      <trkpt lat="43.75208" lon="7.25356">
        <ele>468</ele>
        <time>2011-03-26T13:14:05Z</time>
      </trkpt>
      <trkpt lat="43.75217" lon="7.25351">
        <ele>470</ele>
        <time>2011-03-26T13:14:10Z</time>
      </trkpt>
      <trkpt lat="43.75226" lon="7.25346">
        <ele>471</ele>
        <time>2011-03-26T13:14:15Z</time>
      </trkpt>
      <trkpt lat="43.75231" lon="7.25335">
        <ele>472</ele>
        <time>2011-03-26T13:14:20Z</time>
      </trkpt>
      <trkpt lat="43.75235" lon="7.25324">
        <ele>474</ele>
        <time>2011-03-26T13:14:26Z</time>
      </trkpt>
      <trkpt lat="43.75239" lon="7.25313">
        <ele>475</ele>
        <time>2011-03-26T13:14:32Z</time>
      </trkpt>
      <trkpt lat="43.75246" lon="7.25307">
        <ele>476</ele>
        <time>2011-03-26T13:14:37Z</time>
      </trkpt>
      <trkpt lat="43.75255" lon="7.253">
        <ele>478</ele>
        <time>2011-03-26T13:14:43Z</time>
      </trkpt>
      <trkpt lat="43.75264" lon="7.25297">
        <ele>479</ele>
        <time>2011-03-26T13:14:48Z</time>
      </trkpt>
      <trkpt lat="43.75274" lon="7.25298">
        <ele>479</ele>
        <time>2011-03-26T13:14:54Z</time>
      </trkpt>
      <trkpt lat="43.75283" lon="7.25299">
        <ele>479</ele>
        <time>2011-03-26T13:14:59Z</time>
      </trkpt>
      <trkpt lat="43.75292" lon="7.25301">
        <ele>478</ele>
        <time>2011-03-26T13:15:05Z</time>
      </trkpt>
      <trkpt lat="43.75301" lon="7.25299">
        <ele>479</ele>
        <time>2011-03-26T13:15:18Z</time>
      </trkpt>
      <trkpt lat="43.75309" lon="7.25307">
        <ele>478</ele>
        <time>2011-03-26T13:15:28Z</time>
      </trkpt>
      <trkpt lat="43.75318" lon="7.25309">
        <ele>478</ele>
        <time>2011-03-26T13:15:39Z</time>
      </trkpt>
      <trkpt lat="43.75317" lon="7.25309">
        <ele>477</ele>
        <time>2011-03-26T13:15:49Z</time>
      </trkpt>
      <trkpt lat="43.75319" lon="7.25322">
        <ele>473</ele>
        <time>2011-03-26T13:17:46Z</time>
      </trkpt>
      <trkpt lat="43.75328" lon="7.25326">
        <ele>475</ele>
        <time>2011-03-26T13:17:50Z</time>
      </trkpt>
      <trkpt lat="43.75337" lon="7.25329">
        <ele>475</ele>
        <time>2011-03-26T13:17:56Z</time>
      </trkpt>
      <trkpt lat="43.75346" lon="7.25334">
        <ele>477</ele>
        <time>2011-03-26T13:18:01Z</time>
      </trkpt>
      <trkpt lat="43.7535" lon="7.25338">
        <ele>478</ele>
        <time>2011-03-26T13:18:06Z</time>
      </trkpt>
      <trkpt lat="43.7535" lon="7.25353">
        <ele>480</ele>
        <time>2011-03-26T13:18:11Z</time>
      </trkpt>
      <trkpt lat="43.75348" lon="7.25365">
        <ele>479</ele>
        <time>2011-03-26T13:18:17Z</time>
      </trkpt>
      <trkpt lat="43.75347" lon="7.25368">
        <ele>480</ele>
        <time>2011-03-26T13:18:20Z</time>
      </trkpt>
      <trkpt lat="43.75344" lon="7.25379">
        <ele>479</ele>
        <time>2011-03-26T13:18:28Z</time>
      </trkpt>
      <trkpt lat="43.75343" lon="7.25392">
        <ele>479</ele>
        <time>2011-03-26T13:18:32Z</time>
      </trkpt>
      <trkpt lat="43.75346" lon="7.25405">
        <ele>479</ele>
        <time>2011-03-26T13:18:47Z</time>
      </trkpt>
      <trkpt lat="43.75348" lon="7.25417">
        <ele>480</ele>
        <time>2011-03-26T13:18:59Z</time>
      </trkpt>
      <trkpt lat="43.7535" lon="7.2543">
        <ele>481</ele>
        <time>2011-03-26T13:19:06Z</time>
      </trkpt>
      <trkpt lat="43.75349" lon="7.25444">
        <ele>481</ele>
        <time>2011-03-26T13:19:14Z</time>
      </trkpt>
      <trkpt lat="43.75349" lon="7.25457">
        <ele>481</ele>
        <time>2011-03-26T13:19:23Z</time>
      </trkpt>
      <trkpt lat="43.75348" lon="7.2547">
        <ele>482</ele>
        <time>2011-03-26T13:19:32Z</time>
      </trkpt>
      <trkpt lat="43.7535" lon="7.25482">
        <ele>483</ele>
        <time>2011-03-26T13:19:43Z</time>
      </trkpt>
      <trkpt lat="43.75349" lon="7.25495">
        <ele>484</ele>
        <time>2011-03-26T13:19:56Z</time>
      </trkpt>
      <trkpt lat="43.75344" lon="7.25506">
        <ele>487</ele>
        <time>2011-03-26T13:20:09Z</time>
      </trkpt>
      <trkpt lat="43.75339" lon="7.25517">
        <ele>489</ele>
        <time>2011-03-26T13:20:21Z</time>
      </trkpt>
      <trkpt lat="43.75337" lon="7.25525">
        <ele>490</ele>
        <time>2011-03-26T13:20:29Z</time>
      </trkpt>
      <trkpt lat="43.75335" lon="7.25538">
        <ele>491</ele>
        <time>2011-03-26T13:20:38Z</time>
      </trkpt>
      <trkpt lat="43.75333" lon="7.25551">
        <ele>492</ele>
        <time>2011-03-26T13:20:48Z</time>
      </trkpt>
      <trkpt lat="43.75332" lon="7.25563">
        <ele>493</ele>
        <time>2011-03-26T13:20:59Z</time>
      </trkpt>
      <trkpt lat="43.75332" lon="7.25571">
        <ele>494</ele>
        <time>2011-03-26T13:21:06Z</time>
      </trkpt>
      <trkpt lat="43.7533" lon="7.25583">
        <ele>496</ele>
        <time>2011-03-26T13:21:15Z</time>
      </trkpt>
      <trkpt lat="43.75328" lon="7.25596">
        <ele>498</ele>
        <time>2011-03-26T13:21:24Z</time>
      </trkpt>
      <trkpt lat="43.75323" lon="7.25607">
        <ele>501</ele>
        <time>2011-03-26T13:21:37Z</time>
      </trkpt>
      <trkpt lat="43.7532" lon="7.25619">
        <ele>502</ele>
        <time>2011-03-26T13:21:48Z</time>
      </trkpt>
      <trkpt lat="43.75319" lon="7.25623">
        <ele>503</ele>
        <time>2011-03-26T13:21:51Z</time>
      </trkpt>
      <trkpt lat="43.75318" lon="7.25637">
        <ele>503</ele>
        <time>2011-03-26T13:22:01Z</time>
      </trkpt>
      <trkpt lat="43.75317" lon="7.25649">
        <ele>505</ele>
        <time>2011-03-26T13:22:14Z</time>
      </trkpt>
      <trkpt lat="43.75314" lon="7.25662">
        <ele>507</ele>
        <time>2011-03-26T13:22:28Z</time>
      </trkpt>
      <trkpt lat="43.75312" lon="7.25675">
        <ele>507</ele>
        <time>2011-03-26T13:22:38Z</time>
      </trkpt>
      <trkpt lat="43.75308" lon="7.25687">
        <ele>507</ele>
        <time>2011-03-26T13:22:48Z</time>
      </trkpt>
      <trkpt lat="43.75306" lon="7.25693">
        <ele>508</ele>
        <time>2011-03-26T13:22:54Z</time>
      </trkpt>
      <trkpt lat="43.753" lon="7.25704">
        <ele>511</ele>
        <time>2011-03-26T13:23:05Z</time>
      </trkpt>
      <trkpt lat="43.75296" lon="7.25715">
        <ele>513</ele>
        <time>2011-03-26T13:23:17Z</time>
      </trkpt>
      <trkpt lat="43.75292" lon="7.25727">
        <ele>514</ele>
        <time>2011-03-26T13:23:26Z</time>
      </trkpt>
      <trkpt lat="43.75288" lon="7.25739">
        <ele>518</ele>
        <time>2011-03-26T13:23:40Z</time>
      </trkpt>
      <trkpt lat="43.75285" lon="7.25752">
        <ele>520</ele>
        <time>2011-03-26T13:23:46Z</time>
      </trkpt>
      <trkpt lat="43.75283" lon="7.25765">
        <ele>522</ele>
        <time>2011-03-26T13:23:51Z</time>
      </trkpt>
      <trkpt lat="43.7528" lon="7.25778">
        <ele>523</ele>
        <time>2011-03-26T13:23:54Z</time>
      </trkpt>
      <trkpt lat="43.75277" lon="7.25791">
        <ele>524</ele>
        <time>2011-03-26T13:23:58Z</time>
      </trkpt>
      <trkpt lat="43.75274" lon="7.25804">
        <ele>525</ele>
        <time>2011-03-26T13:24:03Z</time>
      </trkpt>
      <trkpt lat="43.75272" lon="7.25817">
        <ele>527</ele>
        <time>2011-03-26T13:24:07Z</time>
      </trkpt>
      <trkpt lat="43.7527" lon="7.25825">
        <ele>527</ele>
        <time>2011-03-26T13:24:10Z</time>
      </trkpt>
      <trkpt lat="43.75268" lon="7.25838">
        <ele>529</ele>
        <time>2011-03-26T13:24:15Z</time>
      </trkpt>
      <trkpt lat="43.75272" lon="7.25841">
        <ele>538</ele>
        <time>2011-03-26T13:25:01Z</time>
      </trkpt>
      <trkpt lat="43.75274" lon="7.25846">
        <ele>534</ele>
        <time>2011-03-26T13:27:17Z</time>
      </trkpt>
      <trkpt lat="43.75274" lon="7.25846">
        <ele>534</ele>
        <time>2011-03-26T13:27:17Z</time>
      </trkpt>
      <trkpt lat="43.75274" lon="7.25846">
        <ele>534</ele>
        <time>2011-03-26T13:27:18Z</time>
      </trkpt>
      <trkpt lat="43.75281" lon="7.25837">
        <ele>563</ele>
        <time>2011-03-26T13:28:10Z</time>
      </trkpt>
      <trkpt lat="43.75289" lon="7.25833">
        <ele>565</ele>
        <time>2011-03-26T13:28:15Z</time>
      </trkpt>
      <trkpt lat="43.75301" lon="7.25825">
        <ele>567</ele>
        <time>2011-03-26T13:28:24Z</time>
      </trkpt>
      <trkpt lat="43.75309" lon="7.25819">
        <ele>567</ele>
        <time>2011-03-26T13:28:34Z</time>
      </trkpt>
      <trkpt lat="43.75319" lon="7.25815">
        <ele>569</ele>
        <time>2011-03-26T13:28:37Z</time>
      </trkpt>
      <trkpt lat="43.75328" lon="7.25811">
        <ele>571</ele>
        <time>2011-03-26T13:28:41Z</time>
      </trkpt>
      <trkpt lat="43.75335" lon="7.25806">
        <ele>572</ele>
        <time>2011-03-26T13:28:44Z</time>
      </trkpt>
      <trkpt lat="43.75343" lon="7.25798">
        <ele>573</ele>
        <time>2011-03-26T13:28:47Z</time>
      </trkpt>
      <trkpt lat="43.7535" lon="7.25789">
        <ele>573</ele>
        <time>2011-03-26T13:28:51Z</time>
      </trkpt>
      <trkpt lat="43.75357" lon="7.2578">
        <ele>575</ele>
        <time>2011-03-26T13:28:56Z</time>
      </trkpt>
      <trkpt lat="43.75362" lon="7.25776">
        <ele>576</ele>
        <time>2011-03-26T13:29:00Z</time>
      </trkpt>
      <trkpt lat="43.75372" lon="7.25779">
        <ele>571</ele>
        <time>2011-03-26T13:29:28Z</time>
      </trkpt>
      <trkpt lat="43.75373" lon="7.25779">
        <ele>570</ele>
        <time>2011-03-26T13:29:28Z</time>
      </trkpt>
      <trkpt lat="43.75381" lon="7.25786">
        <ele>562</ele>
        <time>2011-03-26T13:29:35Z</time>
      </trkpt>
      <trkpt lat="43.75389" lon="7.25793">
        <ele>558</ele>
        <time>2011-03-26T13:29:40Z</time>
      </trkpt>
      <trkpt lat="43.7539" lon="7.25794">
        <ele>557</ele>
        <time>2011-03-26T13:29:40Z</time>
      </trkpt>
      <trkpt lat="43.75399" lon="7.25801">
        <ele>555</ele>
        <time>2011-03-26T13:29:45Z</time>
      </trkpt>
      <trkpt lat="43.75408" lon="7.25807">
        <ele>553</ele>
        <time>2011-03-26T13:29:49Z</time>
      </trkpt>
      <trkpt lat="43.75419" lon="7.25808">
        <ele>551</ele>
        <time>2011-03-26T13:29:54Z</time>
      </trkpt>
      <trkpt lat="43.75428" lon="7.25804">
        <ele>550</ele>
        <time>2011-03-26T13:29:57Z</time>
      </trkpt>
      <trkpt lat="43.75439" lon="7.25802">
        <ele>551</ele>
        <time>2011-03-26T13:30:01Z</time>
      </trkpt>
      <trkpt lat="43.75449" lon="7.258">
        <ele>551</ele>
        <time>2011-03-26T13:30:05Z</time>
      </trkpt>
      <trkpt lat="43.75459" lon="7.25795">
        <ele>550</ele>
        <time>2011-03-26T13:30:08Z</time>
      </trkpt>
      <trkpt lat="43.75468" lon="7.25787">
        <ele>550</ele>
        <time>2011-03-26T13:30:12Z</time>
      </trkpt>
      <trkpt lat="43.75478" lon="7.25781">
        <ele>550</ele>
        <time>2011-03-26T13:30:16Z</time>
      </trkpt>
      <trkpt lat="43.75487" lon="7.25778">
        <ele>549</ele>
        <time>2011-03-26T13:30:20Z</time>
      </trkpt>
      <trkpt lat="43.75491" lon="7.25774">
        <ele>550</ele>
        <time>2011-03-26T13:30:22Z</time>
      </trkpt>
      <trkpt lat="43.75494" lon="7.25761">
        <ele>549</ele>
        <time>2011-03-26T13:30:26Z</time>
      </trkpt>
      <trkpt lat="43.75495" lon="7.25748">
        <ele>550</ele>
        <time>2011-03-26T13:30:29Z</time>
      </trkpt>
      <trkpt lat="43.75496" lon="7.25734">
        <ele>550</ele>
        <time>2011-03-26T13:30:34Z</time>
      </trkpt>
      <trkpt lat="43.75499" lon="7.25722">
        <ele>549</ele>
        <time>2011-03-26T13:30:47Z</time>
      </trkpt>
      <trkpt lat="43.75507" lon="7.25712">
        <ele>551</ele>
        <time>2011-03-26T13:30:58Z</time>
      </trkpt>
      <trkpt lat="43.75509" lon="7.25711">
        <ele>550</ele>
        <time>2011-03-26T13:31:01Z</time>
      </trkpt>
      <trkpt lat="43.75518" lon="7.25706">
        <ele>551</ele>
        <time>2011-03-26T13:31:13Z</time>
      </trkpt>
      <trkpt lat="43.75527" lon="7.25701">
        <ele>553</ele>
        <time>2011-03-26T13:31:22Z</time>
      </trkpt>
      <trkpt lat="43.7553" lon="7.25688">
        <ele>554</ele>
        <time>2011-03-26T13:31:29Z</time>
      </trkpt>
      <trkpt lat="43.75532" lon="7.25675">
        <ele>555</ele>
        <time>2011-03-26T13:31:37Z</time>
      </trkpt>
      <trkpt lat="43.75533" lon="7.25663">
        <ele>556</ele>
        <time>2011-03-26T13:31:45Z</time>
      </trkpt>
      <trkpt lat="43.75529" lon="7.25651">
        <ele>557</ele>
        <time>2011-03-26T13:32:01Z</time>
      </trkpt>
      <trkpt lat="43.7553" lon="7.25638">
        <ele>557</ele>
        <time>2011-03-26T13:32:09Z</time>
      </trkpt>
      <trkpt lat="43.75532" lon="7.25631">
        <ele>558</ele>
        <time>2011-03-26T13:32:13Z</time>
      </trkpt>
      <trkpt lat="43.75536" lon="7.2562">
        <ele>559</ele>
        <time>2011-03-26T13:32:19Z</time>
      </trkpt>
      <trkpt lat="43.75542" lon="7.2561">
        <ele>560</ele>
        <time>2011-03-26T13:32:23Z</time>
      </trkpt>
      <trkpt lat="43.75548" lon="7.25599">
        <ele>559</ele>
        <time>2011-03-26T13:32:31Z</time>
      </trkpt>
      <trkpt lat="43.75554" lon="7.25589">
        <ele>560</ele>
        <time>2011-03-26T13:32:38Z</time>
      </trkpt>
      <trkpt lat="43.75561" lon="7.2558">
        <ele>561</ele>
        <time>2011-03-26T13:32:46Z</time>
      </trkpt>
      <trkpt lat="43.75568" lon="7.25571">
        <ele>562</ele>
        <time>2011-03-26T13:32:54Z</time>
      </trkpt>
      <trkpt lat="43.75577" lon="7.25567">
        <ele>562</ele>
        <time>2011-03-26T13:33:03Z</time>
      </trkpt>
      <trkpt lat="43.75586" lon="7.25564">
        <ele>563</ele>
        <time>2011-03-26T13:33:10Z</time>
      </trkpt>
      <trkpt lat="43.75595" lon="7.25559">
        <ele>563</ele>
        <time>2011-03-26T13:33:17Z</time>
      </trkpt>
      <trkpt lat="43.75604" lon="7.25557">
        <ele>564</ele>
        <time>2011-03-26T13:33:24Z</time>
      </trkpt>
      <trkpt lat="43.75613" lon="7.25557">
        <ele>564</ele>
        <time>2011-03-26T13:33:33Z</time>
      </trkpt>
      <trkpt lat="43.75622" lon="7.25561">
        <ele>563</ele>
        <time>2011-03-26T13:33:43Z</time>
      </trkpt>
      <trkpt lat="43.75631" lon="7.2556">
        <ele>565</ele>
        <time>2011-03-26T13:33:54Z</time>
      </trkpt>
      <trkpt lat="43.7564" lon="7.25555">
        <ele>570</ele>
        <time>2011-03-26T13:34:07Z</time>
      </trkpt>
      <trkpt lat="43.75645" lon="7.2555">
        <ele>572</ele>
        <time>2011-03-26T13:34:12Z</time>
      </trkpt>
      <trkpt lat="43.75653" lon="7.25542">
        <ele>574</ele>
        <time>2011-03-26T13:34:18Z</time>
      </trkpt>
      <trkpt lat="43.75661" lon="7.25536">
        <ele>576</ele>
        <time>2011-03-26T13:34:23Z</time>
      </trkpt>
      <trkpt lat="43.75671" lon="7.25533">
        <ele>576</ele>
        <time>2011-03-26T13:34:29Z</time>
      </trkpt>
      <trkpt lat="43.7568" lon="7.25532">
        <ele>577</ele>
        <time>2011-03-26T13:34:47Z</time>
      </trkpt>
      <trkpt lat="43.75689" lon="7.25526">
        <ele>578</ele>
        <time>2011-03-26T13:34:57Z</time>
      </trkpt>
      <trkpt lat="43.75697" lon="7.25522">
        <ele>578</ele>
        <time>2011-03-26T13:35:03Z</time>
      </trkpt>
      <trkpt lat="43.75707" lon="7.25521">
        <ele>578</ele>
        <time>2011-03-26T13:35:08Z</time>
      </trkpt>
      <trkpt lat="43.75716" lon="7.25519">
        <ele>578</ele>
        <time>2011-03-26T13:35:14Z</time>
      </trkpt>
      <trkpt lat="43.75725" lon="7.25515">
        <ele>578</ele>
        <time>2011-03-26T13:35:19Z</time>
      </trkpt>
      <trkpt lat="43.75734" lon="7.2551">
        <ele>580</ele>
        <time>2011-03-26T13:35:25Z</time>
      </trkpt>
      <trkpt lat="43.75742" lon="7.25504">
        <ele>580</ele>
        <time>2011-03-26T13:35:31Z</time>
      </trkpt>
      <trkpt lat="43.75752" lon="7.25502">
        <ele>581</ele>
        <time>2011-03-26T13:35:37Z</time>
      </trkpt>
      <trkpt lat="43.75761" lon="7.25499">
        <ele>582</ele>
        <time>2011-03-26T13:35:46Z</time>
      </trkpt>
      <trkpt lat="43.7577" lon="7.25493">
        <ele>583</ele>
        <time>2011-03-26T13:35:52Z</time>
      </trkpt>
      <trkpt lat="43.75771" lon="7.25493">
        <ele>583</ele>
        <time>2011-03-26T13:35:53Z</time>
      </trkpt>
      <trkpt lat="43.7578" lon="7.25487">
        <ele>583</ele>
        <time>2011-03-26T13:36:00Z</time>
      </trkpt>
      <trkpt lat="43.75787" lon="7.2548">
        <ele>583</ele>
        <time>2011-03-26T13:36:06Z</time>
      </trkpt>
      <trkpt lat="43.75789" lon="7.25479">
        <ele>584</ele>
        <time>2011-03-26T13:36:07Z</time>
      </trkpt>
      <trkpt lat="43.75797" lon="7.25472">
        <ele>585</ele>
        <time>2011-03-26T13:36:22Z</time>
      </trkpt>
      <trkpt lat="43.758" lon="7.2547">
        <ele>586</ele>
        <time>2011-03-26T13:36:30Z</time>
      </trkpt>
      <trkpt lat="43.7581" lon="7.25466">
        <ele>587</ele>
        <time>2011-03-26T13:36:37Z</time>
      </trkpt>
      <trkpt lat="43.75819" lon="7.25463">
        <ele>588</ele>
        <time>2011-03-26T13:36:43Z</time>
      </trkpt>
      <trkpt lat="43.75828" lon="7.25458">
        <ele>589</ele>
        <time>2011-03-26T13:36:49Z</time>
      </trkpt>
      <trkpt lat="43.75835" lon="7.25449">
        <ele>591</ele>
        <time>2011-03-26T13:36:55Z</time>
      </trkpt>
      <trkpt lat="43.75845" lon="7.25445">
        <ele>592</ele>
        <time>2011-03-26T13:37:02Z</time>
      </trkpt>
      <trkpt lat="43.75854" lon="7.2544">
        <ele>594</ele>
        <time>2011-03-26T13:37:18Z</time>
      </trkpt>
      <trkpt lat="43.75863" lon="7.25437">
        <ele>595</ele>
        <time>2011-03-26T13:37:29Z</time>
      </trkpt>
      <trkpt lat="43.75872" lon="7.25435">
        <ele>597</ele>
        <time>2011-03-26T13:37:41Z</time>
      </trkpt>
      <trkpt lat="43.7588" lon="7.2543">
        <ele>596</ele>
        <time>2011-03-26T13:37:56Z</time>
      </trkpt>
      <trkpt lat="43.75889" lon="7.25423">
        <ele>596</ele>
        <time>2011-03-26T13:38:02Z</time>
      </trkpt>
      <trkpt lat="43.75898" lon="7.25418">
        <ele>595</ele>
        <time>2011-03-26T13:38:06Z</time>
      </trkpt>
      <trkpt lat="43.75906" lon="7.25411">
        <ele>594</ele>
        <time>2011-03-26T13:38:11Z</time>
      </trkpt>
      <trkpt lat="43.75915" lon="7.25405">
        <ele>594</ele>
        <time>2011-03-26T13:38:16Z</time>
      </trkpt>
      <trkpt lat="43.75923" lon="7.25399">
        <ele>596</ele>
        <time>2011-03-26T13:38:22Z</time>
      </trkpt>
      <trkpt lat="43.75926" lon="7.25399">
        <ele>595</ele>
        <time>2011-03-26T13:38:23Z</time>
      </trkpt>
      <trkpt lat="43.75934" lon="7.25392">
        <ele>596</ele>
        <time>2011-03-26T13:38:29Z</time>
      </trkpt>
      <trkpt lat="43.75938" lon="7.25389">
        <ele>596</ele>
        <time>2011-03-26T13:38:32Z</time>
      </trkpt>
      <trkpt lat="43.75947" lon="7.25383">
        <ele>597</ele>
        <time>2011-03-26T13:38:38Z</time>
      </trkpt>
      <trkpt lat="43.75956" lon="7.25378">
        <ele>597</ele>
        <time>2011-03-26T13:38:44Z</time>
      </trkpt>
      <trkpt lat="43.7596" lon="7.25377">
        <ele>597</ele>
        <time>2011-03-26T13:38:46Z</time>
      </trkpt>
      <trkpt lat="43.75969" lon="7.25374">
        <ele>598</ele>
        <time>2011-03-26T13:38:51Z</time>
      </trkpt>
      <trkpt lat="43.75978" lon="7.25369">
        <ele>598</ele>
        <time>2011-03-26T13:38:57Z</time>
      </trkpt>
      <trkpt lat="43.75984" lon="7.25366">
        <ele>597</ele>
        <time>2011-03-26T13:39:01Z</time>
      </trkpt>
      <trkpt lat="43.75992" lon="7.25361">
        <ele>597</ele>
        <time>2011-03-26T13:39:11Z</time>
      </trkpt>
      <trkpt lat="43.76001" lon="7.25355">
        <ele>600</ele>
        <time>2011-03-26T13:39:21Z</time>
      </trkpt>
      <trkpt lat="43.76008" lon="7.25348">
        <ele>601</ele>
        <time>2011-03-26T13:39:29Z</time>
      </trkpt>
      <trkpt lat="43.76016" lon="7.2534">
        <ele>605</ele>
        <time>2011-03-26T13:39:38Z</time>
      </trkpt>
      <trkpt lat="43.76022" lon="7.25331">
        <ele>609</ele>
        <time>2011-03-26T13:39:46Z</time>
      </trkpt>
      <trkpt lat="43.7603" lon="7.25323">
        <ele>611</ele>
        <time>2011-03-26T13:39:55Z</time>
      </trkpt>
      <trkpt lat="43.76039" lon="7.25321">
        <ele>613</ele>
        <time>2011-03-26T13:40:05Z</time>
      </trkpt>
      <trkpt lat="43.76048" lon="7.25324">
        <ele>611</ele>
        <time>2011-03-26T13:40:14Z</time>
      </trkpt>
      <trkpt lat="43.76057" lon="7.25327">
        <ele>609</ele>
        <time>2011-03-26T13:40:24Z</time>
      </trkpt>
      <trkpt lat="43.76066" lon="7.25327">
        <ele>609</ele>
        <time>2011-03-26T13:40:33Z</time>
      </trkpt>
      <trkpt lat="43.76076" lon="7.25324">
        <ele>608</ele>
        <time>2011-03-26T13:40:41Z</time>
      </trkpt>
      <trkpt lat="43.76081" lon="7.25313">
        <ele>615</ele>
        <time>2011-03-26T13:40:49Z</time>
      </trkpt>
      <trkpt lat="43.76081" lon="7.253">
        <ele>623</ele>
        <time>2011-03-26T13:40:59Z</time>
      </trkpt>
      <trkpt lat="43.76081" lon="7.25297">
        <ele>623</ele>
        <time>2011-03-26T13:41:04Z</time>
      </trkpt>
      <trkpt lat="43.76089" lon="7.25288">
        <ele>631</ele>
        <time>2011-03-26T13:41:56Z</time>
      </trkpt>
      <trkpt lat="43.76098" lon="7.25284">
        <ele>631</ele>
        <time>2011-03-26T13:42:03Z</time>
      </trkpt>
      <trkpt lat="43.76107" lon="7.2528">
        <ele>631</ele>
        <time>2011-03-26T13:42:10Z</time>
      </trkpt>
      <trkpt lat="43.76114" lon="7.25273">
        <ele>631</ele>
        <time>2011-03-26T13:42:18Z</time>
      </trkpt>
      <trkpt lat="43.76123" lon="7.25267">
        <ele>633</ele>
        <time>2011-03-26T13:42:26Z</time>
      </trkpt>
      <trkpt lat="43.7613" lon="7.25258">
        <ele>634</ele>
        <time>2011-03-26T13:42:33Z</time>
      </trkpt>
      <trkpt lat="43.76138" lon="7.25252">
        <ele>634</ele>
        <time>2011-03-26T13:42:42Z</time>
      </trkpt>
      <trkpt lat="43.76145" lon="7.25244">
        <ele>637</ele>
        <time>2011-03-26T13:42:51Z</time>
      </trkpt>
      <trkpt lat="43.76153" lon="7.25238">
        <ele>641</ele>
        <time>2011-03-26T13:43:00Z</time>
      </trkpt>
      <trkpt lat="43.76161" lon="7.25237">
        <ele>642</ele>
        <time>2011-03-26T13:43:12Z</time>
      </trkpt>
      <trkpt lat="43.7617" lon="7.25234">
        <ele>642</ele>
        <time>2011-03-26T13:43:21Z</time>
      </trkpt>
      <trkpt lat="43.76179" lon="7.25229">
        <ele>642</ele>
        <time>2011-03-26T13:43:29Z</time>
      </trkpt>
      <trkpt lat="43.76188" lon="7.25223">
        <ele>643</ele>
        <time>2011-03-26T13:43:37Z</time>
      </trkpt>
      <trkpt lat="43.76196" lon="7.25219">
        <ele>641</ele>
        <time>2011-03-26T13:43:44Z</time>
      </trkpt>
      <trkpt lat="43.76205" lon="7.25215">
        <ele>641</ele>
        <time>2011-03-26T13:43:52Z</time>
      </trkpt>
      <trkpt lat="43.76215" lon="7.25216">
        <ele>640</ele>
        <time>2011-03-26T13:44:01Z</time>
      </trkpt>
      <trkpt lat="43.76224" lon="7.25213">
        <ele>641</ele>
        <time>2011-03-26T13:44:12Z</time>
      </trkpt>
      <trkpt lat="43.76233" lon="7.25209">
        <ele>640</ele>
        <time>2011-03-26T13:44:18Z</time>
      </trkpt>
      <trkpt lat="43.76242" lon="7.25207">
        <ele>640</ele>
        <time>2011-03-26T13:44:23Z</time>
      </trkpt>
      <trkpt lat="43.76251" lon="7.25206">
        <ele>639</ele>
        <time>2011-03-26T13:44:28Z</time>
      </trkpt>
      <trkpt lat="43.76261" lon="7.25207">
        <ele>640</ele>
        <time>2011-03-26T13:44:41Z</time>
      </trkpt>
      <trkpt lat="43.7627" lon="7.25205">
        <ele>640</ele>
        <time>2011-03-26T13:44:50Z</time>
      </trkpt>
      <trkpt lat="43.7628" lon="7.25204">
        <ele>641</ele>
        <time>2011-03-26T13:45:00Z</time>
      </trkpt>
      <trkpt lat="43.76289" lon="7.25204">
        <ele>641</ele>
        <time>2011-03-26T13:45:09Z</time>
      </trkpt>
      <trkpt lat="43.76298" lon="7.25205">
        <ele>642</ele>
        <time>2011-03-26T13:45:18Z</time>
      </trkpt>
      <trkpt lat="43.76308" lon="7.25205">
        <ele>644</ele>
        <time>2011-03-26T13:45:28Z</time>
      </trkpt>
      <trkpt lat="43.76317" lon="7.25201">
        <ele>644</ele>
        <time>2011-03-26T13:45:37Z</time>
      </trkpt>
      <trkpt lat="43.76327" lon="7.25198">
        <ele>645</ele>
        <time>2011-03-26T13:45:47Z</time>
      </trkpt>
      <trkpt lat="43.76336" lon="7.25197">
        <ele>648</ele>
        <time>2011-03-26T13:45:57Z</time>
      </trkpt>
      <trkpt lat="43.76343" lon="7.25196">
        <ele>652</ele>
        <time>2011-03-26T13:46:09Z</time>
      </trkpt>
      <trkpt lat="43.76352" lon="7.25197">
        <ele>654</ele>
        <time>2011-03-26T13:46:21Z</time>
      </trkpt>
      <trkpt lat="43.76361" lon="7.25194">
        <ele>656</ele>
        <time>2011-03-26T13:46:34Z</time>
      </trkpt>
      <trkpt lat="43.76361" lon="7.25193">
        <ele>656</ele>
        <time>2011-03-26T13:46:36Z</time>
      </trkpt>
      <trkpt lat="43.76364" lon="7.25181">
        <ele>660</ele>
        <time>2011-03-26T13:47:03Z</time>
      </trkpt>
      <trkpt lat="43.76364" lon="7.25181">
        <ele>659</ele>
        <time>2011-03-26T13:47:04Z</time>
      </trkpt>
      <trkpt lat="43.76371" lon="7.25171">
        <ele>659</ele>
        <time>2011-03-26T13:53:12Z</time>
      </trkpt>
      <trkpt lat="43.76371" lon="7.25171">
        <ele>659</ele>
        <time>2011-03-26T13:53:12Z</time>
      </trkpt>
      <trkpt lat="43.76371" lon="7.25171">
        <ele>659</ele>
        <time>2011-03-26T13:53:12Z</time>
      </trkpt>
      <trkpt lat="43.76367" lon="7.25179">
        <ele>661</ele>
        <time>2011-03-26T13:53:37Z</time>
      </trkpt>
      <trkpt lat="43.76364" lon="7.25189">
        <ele>667</ele>
        <time>2011-03-26T13:54:27Z</time>
      </trkpt>
      <trkpt lat="43.76371" lon="7.2518">
        <ele>669</ele>
        <time>2011-03-26T13:54:48Z</time>
      </trkpt>
      <trkpt lat="43.76374" lon="7.25176">
        <ele>670</ele>
        <time>2011-03-26T13:54:50Z</time>
      </trkpt>
      <trkpt lat="43.76364" lon="7.25176">
        <ele>669</ele>
        <time>2011-03-26T13:55:14Z</time>
      </trkpt>
      <trkpt lat="43.76355" lon="7.2518">
        <ele>667</ele>
        <time>2011-03-26T13:55:45Z</time>
      </trkpt>
      <trkpt lat="43.76354" lon="7.2518">
        <ele>667</ele>
        <time>2011-03-26T13:55:45Z</time>
      </trkpt>
      <trkpt lat="43.76344" lon="7.25177">
        <ele>667</ele>
        <time>2011-03-26T13:55:51Z</time>
      </trkpt>
      <trkpt lat="43.76336" lon="7.25167">
        <ele>667</ele>
        <time>2011-03-26T13:55:57Z</time>
      </trkpt>
      <trkpt lat="43.76329" lon="7.25159">
        <ele>665</ele>
        <time>2011-03-26T13:56:02Z</time>
      </trkpt>
      <trkpt lat="43.7632" lon="7.25156">
        <ele>665</ele>
        <time>2011-03-26T13:56:07Z</time>
      </trkpt>
      <trkpt lat="43.76311" lon="7.25149">
        <ele>665</ele>
        <time>2011-03-26T13:56:13Z</time>
      </trkpt>
      <trkpt lat="43.76314" lon="7.25136">
        <ele>668</ele>
        <time>2011-03-26T13:56:17Z</time>
      </trkpt>
      <trkpt lat="43.7632" lon="7.25125">
        <ele>667</ele>
        <time>2011-03-26T13:56:21Z</time>
      </trkpt>
      <trkpt lat="43.76319" lon="7.25119">
        <ele>666</ele>
        <time>2011-03-26T13:56:24Z</time>
      </trkpt>
      <trkpt lat="43.7632" lon="7.25106">
        <ele>662</ele>
        <time>2011-03-26T13:56:30Z</time>
      </trkpt>
      <trkpt lat="43.7631" lon="7.25104">
        <ele>659</ele>
        <time>2011-03-26T13:56:35Z</time>
      </trkpt>
      <trkpt lat="43.763" lon="7.25104">
        <ele>657</ele>
        <time>2011-03-26T13:56:39Z</time>
      </trkpt>
      <trkpt lat="43.76291" lon="7.25103">
        <ele>656</ele>
        <time>2011-03-26T13:56:43Z</time>
      </trkpt>
      <trkpt lat="43.76282" lon="7.25105">
        <ele>652</ele>
        <time>2011-03-26T13:56:49Z</time>
      </trkpt>
      <trkpt lat="43.76276" lon="7.25104">
        <ele>646</ele>
        <time>2011-03-26T13:56:53Z</time>
      </trkpt>
      <trkpt lat="43.76275" lon="7.25099">
        <ele>632</ele>
        <time>2011-03-26T13:57:05Z</time>
      </trkpt>
      <trkpt lat="43.76266" lon="7.25094">
        <ele>628</ele>
        <time>2011-03-26T13:57:15Z</time>
      </trkpt>
      <trkpt lat="43.7626" lon="7.25085">
        <ele>629</ele>
        <time>2011-03-26T13:57:23Z</time>
      </trkpt>
      <trkpt lat="43.76255" lon="7.25073">
        <ele>627</ele>
        <time>2011-03-26T13:57:30Z</time>
      </trkpt>
      <trkpt lat="43.76257" lon="7.2506">
        <ele>625</ele>
        <time>2011-03-26T13:57:34Z</time>
      </trkpt>
      <trkpt lat="43.76264" lon="7.25052">
        <ele>624</ele>
        <time>2011-03-26T13:57:39Z</time>
      </trkpt>
      <trkpt lat="43.76263" lon="7.25039">
        <ele>616</ele>
        <time>2011-03-26T13:58:07Z</time>
      </trkpt>
      <trkpt lat="43.76253" lon="7.25039">
        <ele>614</ele>
        <time>2011-03-26T13:58:11Z</time>
      </trkpt>
      <trkpt lat="43.76247" lon="7.25036">
        <ele>613</ele>
        <time>2011-03-26T13:58:15Z</time>
      </trkpt>
      <trkpt lat="43.76241" lon="7.25026">
        <ele>602</ele>
        <time>2011-03-26T13:58:44Z</time>
      </trkpt>
      <trkpt lat="43.76237" lon="7.25015">
        <ele>600</ele>
        <time>2011-03-26T13:58:52Z</time>
      </trkpt>
      <trkpt lat="43.76228" lon="7.25009">
        <ele>591</ele>
        <time>2011-03-26T13:59:22Z</time>
      </trkpt>
      <trkpt lat="43.76221" lon="7.25">
        <ele>589</ele>
        <time>2011-03-26T13:59:31Z</time>
      </trkpt>
      <trkpt lat="43.76211" lon="7.24998">
        <ele>588</ele>
        <time>2011-03-26T13:59:35Z</time>
      </trkpt>
      <trkpt lat="43.76202" lon="7.24993">
        <ele>586</ele>
        <time>2011-03-26T13:59:40Z</time>
      </trkpt>
      <trkpt lat="43.76192" lon="7.2499">
        <ele>583</ele>
        <time>2011-03-26T13:59:46Z</time>
      </trkpt>
      <trkpt lat="43.76186" lon="7.24979">
        <ele>579</ele>
        <time>2011-03-26T14:00:00Z</time>
      </trkpt>
      <trkpt lat="43.76185" lon="7.24973">
        <ele>560</ele>
        <time>2011-03-26T14:00:58Z</time>
      </trkpt>
      <trkpt lat="43.76176" lon="7.24966">
        <ele>560</ele>
        <time>2011-03-26T14:01:28Z</time>
      </trkpt>
      <trkpt lat="43.76177" lon="7.24954">
        <ele>560</ele>
        <time>2011-03-26T14:01:34Z</time>
      </trkpt>
      <trkpt lat="43.76184" lon="7.24944">
        <ele>560</ele>
        <time>2011-03-26T14:01:37Z</time>
      </trkpt>
      <trkpt lat="43.76187" lon="7.24932">
        <ele>557</ele>
        <time>2011-03-26T14:01:54Z</time>
      </trkpt>
      <trkpt lat="43.7619" lon="7.2492">
        <ele>555</ele>
        <time>2011-03-26T14:02:02Z</time>
      </trkpt>
      <trkpt lat="43.76192" lon="7.24907">
        <ele>554</ele>
        <time>2011-03-26T14:02:06Z</time>
      </trkpt>
      <trkpt lat="43.76183" lon="7.24902">
        <ele>554</ele>
        <time>2011-03-26T14:02:11Z</time>
      </trkpt>
      <trkpt lat="43.76172" lon="7.24896">
        <ele>554</ele>
        <time>2011-03-26T14:02:15Z</time>
      </trkpt>
      <trkpt lat="43.76163" lon="7.24895">
        <ele>554</ele>
        <time>2011-03-26T14:02:18Z</time>
      </trkpt>
      <trkpt lat="43.76156" lon="7.24895">
        <ele>553</ele>
        <time>2011-03-26T14:02:20Z</time>
      </trkpt>
      <trkpt lat="43.76148" lon="7.24888">
        <ele>550</ele>
        <time>2011-03-26T14:02:26Z</time>
      </trkpt>
      <trkpt lat="43.76149" lon="7.24874">
        <ele>548</ele>
        <time>2011-03-26T14:02:30Z</time>
      </trkpt>
      <trkpt lat="43.7614" lon="7.24869">
        <ele>544</ele>
        <time>2011-03-26T14:02:35Z</time>
      </trkpt>
      <trkpt lat="43.76138" lon="7.24869">
        <ele>543</ele>
        <time>2011-03-26T14:02:37Z</time>
      </trkpt>
      <trkpt lat="43.76128" lon="7.24872">
        <ele>538</ele>
        <time>2011-03-26T14:02:41Z</time>
      </trkpt>
      <trkpt lat="43.76118" lon="7.24874">
        <ele>534</ele>
        <time>2011-03-26T14:02:46Z</time>
      </trkpt>
      <trkpt lat="43.76107" lon="7.24878">
        <ele>531</ele>
        <time>2011-03-26T14:02:50Z</time>
      </trkpt>
      <trkpt lat="43.76098" lon="7.24881">
        <ele>529</ele>
        <time>2011-03-26T14:02:54Z</time>
      </trkpt>
      <trkpt lat="43.76088" lon="7.24884">
        <ele>527</ele>
        <time>2011-03-26T14:02:57Z</time>
      </trkpt>
      <trkpt lat="43.76085" lon="7.24885">
        <ele>527</ele>
        <time>2011-03-26T14:02:58Z</time>
      </trkpt>
      <trkpt lat="43.76076" lon="7.24888">
        <ele>524</ele>
        <time>2011-03-26T14:03:03Z</time>
      </trkpt>
      <trkpt lat="43.76067" lon="7.24895">
        <ele>523</ele>
        <time>2011-03-26T14:03:07Z</time>
      </trkpt>
      <trkpt lat="43.76058" lon="7.24903">
        <ele>522</ele>
        <time>2011-03-26T14:03:12Z</time>
      </trkpt>
      <trkpt lat="43.7605" lon="7.24908">
        <ele>522</ele>
        <time>2011-03-26T14:03:16Z</time>
      </trkpt>
      <trkpt lat="43.7604" lon="7.24909">
        <ele>521</ele>
        <time>2011-03-26T14:03:20Z</time>
      </trkpt>
      <trkpt lat="43.76029" lon="7.24906">
        <ele>520</ele>
        <time>2011-03-26T14:03:23Z</time>
      </trkpt>
      <trkpt lat="43.76021" lon="7.24899">
        <ele>519</ele>
        <time>2011-03-26T14:03:29Z</time>
      </trkpt>
      <trkpt lat="43.76023" lon="7.24887">
        <ele>516</ele>
        <time>2011-03-26T14:03:36Z</time>
      </trkpt>
      <trkpt lat="43.76018" lon="7.24876">
        <ele>516</ele>
        <time>2011-03-26T14:03:40Z</time>
      </trkpt>
      <trkpt lat="43.76011" lon="7.24867">
        <ele>516</ele>
        <time>2011-03-26T14:03:43Z</time>
      </trkpt>
      <trkpt lat="43.76005" lon="7.24855">
        <ele>515</ele>
        <time>2011-03-26T14:03:45Z</time>
      </trkpt>
      <trkpt lat="43.76" lon="7.2484">
        <ele>513</ele>
        <time>2011-03-26T14:03:47Z</time>
      </trkpt>
      <trkpt lat="43.75996" lon="7.24828">
        <ele>512</ele>
        <time>2011-03-26T14:03:50Z</time>
      </trkpt>
      <trkpt lat="43.75994" lon="7.24822">
        <ele>512</ele>
        <time>2011-03-26T14:03:51Z</time>
      </trkpt>
      <trkpt lat="43.75992" lon="7.24809">
        <ele>497</ele>
        <time>2011-03-26T14:04:42Z</time>
      </trkpt>
      <trkpt lat="43.75992" lon="7.24796">
        <ele>497</ele>
        <time>2011-03-26T14:04:48Z</time>
      </trkpt>
      <trkpt lat="43.75994" lon="7.24782">
        <ele>495</ele>
        <time>2011-03-26T14:04:53Z</time>
      </trkpt>
      <trkpt lat="43.75996" lon="7.24769">
        <ele>494</ele>
        <time>2011-03-26T14:04:58Z</time>
      </trkpt>
      <trkpt lat="43.75993" lon="7.24756">
        <ele>493</ele>
        <time>2011-03-26T14:05:05Z</time>
      </trkpt>
      <trkpt lat="43.75981" lon="7.24753">
        <ele>493</ele>
        <time>2011-03-26T14:05:09Z</time>
      </trkpt>
      <trkpt lat="43.7597" lon="7.24755">
        <ele>494</ele>
        <time>2011-03-26T14:05:12Z</time>
      </trkpt>
      <trkpt lat="43.7596" lon="7.24761">
        <ele>493</ele>
        <time>2011-03-26T14:05:14Z</time>
      </trkpt>
      <trkpt lat="43.75952" lon="7.24771">
        <ele>493</ele>
        <time>2011-03-26T14:05:16Z</time>
      </trkpt>
      <trkpt lat="43.75949" lon="7.24783">
        <ele>493</ele>
        <time>2011-03-26T14:05:18Z</time>
      </trkpt>
      <trkpt lat="43.75945" lon="7.24795">
        <ele>493</ele>
        <time>2011-03-26T14:05:21Z</time>
      </trkpt>
      <trkpt lat="43.7594" lon="7.24807">
        <ele>493</ele>
        <time>2011-03-26T14:05:23Z</time>
      </trkpt>
      <trkpt lat="43.75936" lon="7.24821">
        <ele>493</ele>
        <time>2011-03-26T14:05:25Z</time>
      </trkpt>
      <trkpt lat="43.75934" lon="7.24833">
        <ele>492</ele>
        <time>2011-03-26T14:05:27Z</time>
      </trkpt>
      <trkpt lat="43.75931" lon="7.24849">
        <ele>492</ele>
        <time>2011-03-26T14:05:30Z</time>
      </trkpt>
      <trkpt lat="43.75928" lon="7.24861">
        <ele>492</ele>
        <time>2011-03-26T14:05:32Z</time>
      </trkpt>
      <trkpt lat="43.75926" lon="7.24874">
        <ele>492</ele>
        <time>2011-03-26T14:05:35Z</time>
      </trkpt>
      <trkpt lat="43.75923" lon="7.24887">
        <ele>492</ele>
        <time>2011-03-26T14:05:37Z</time>
      </trkpt>
      <trkpt lat="43.7592" lon="7.24902">
        <ele>491</ele>
        <time>2011-03-26T14:05:40Z</time>
      </trkpt>
      <trkpt lat="43.75916" lon="7.24917">
        <ele>491</ele>
        <time>2011-03-26T14:05:43Z</time>
      </trkpt>
      <trkpt lat="43.75911" lon="7.24928">
        <ele>491</ele>
        <time>2011-03-26T14:05:45Z</time>
      </trkpt>
      <trkpt lat="43.75905" lon="7.24937">
        <ele>490</ele>
        <time>2011-03-26T14:05:47Z</time>
      </trkpt>
      <trkpt lat="43.75897" lon="7.24948">
        <ele>490</ele>
        <time>2011-03-26T14:05:50Z</time>
      </trkpt>
      <trkpt lat="43.75889" lon="7.24957">
        <ele>490</ele>
        <time>2011-03-26T14:05:53Z</time>
      </trkpt>
      <trkpt lat="43.75885" lon="7.24961">
        <ele>490</ele>
        <time>2011-03-26T14:05:55Z</time>
      </trkpt>
      <trkpt lat="43.75876" lon="7.24967">
        <ele>490</ele>
        <time>2011-03-26T14:05:57Z</time>
      </trkpt>
      <trkpt lat="43.75868" lon="7.24972">
        <ele>491</ele>
        <time>2011-03-26T14:06:01Z</time>
      </trkpt>
      <trkpt lat="43.75863" lon="7.24983">
        <ele>491</ele>
        <time>2011-03-26T14:06:06Z</time>
      </trkpt>
      <trkpt lat="43.75857" lon="7.24994">
        <ele>492</ele>
        <time>2011-03-26T14:06:11Z</time>
      </trkpt>
      <trkpt lat="43.75848" lon="7.25">
        <ele>492</ele>
        <time>2011-03-26T14:06:16Z</time>
      </trkpt>
      <trkpt lat="43.75839" lon="7.25004">
        <ele>492</ele>
        <time>2011-03-26T14:06:20Z</time>
      </trkpt>
      <trkpt lat="43.7583" lon="7.25007">
        <ele>493</ele>
        <time>2011-03-26T14:06:23Z</time>
      </trkpt>
      <trkpt lat="43.7582" lon="7.25008">
        <ele>492</ele>
        <time>2011-03-26T14:06:26Z</time>
      </trkpt>
      <trkpt lat="43.75818" lon="7.25008">
        <ele>492</ele>
        <time>2011-03-26T14:06:26Z</time>
      </trkpt>
      <trkpt lat="43.75807" lon="7.25011">
        <ele>491</ele>
        <time>2011-03-26T14:06:30Z</time>
      </trkpt>
      <trkpt lat="43.75797" lon="7.25018">
        <ele>490</ele>
        <time>2011-03-26T14:06:34Z</time>
      </trkpt>
      <trkpt lat="43.75788" lon="7.25026">
        <ele>489</ele>
        <time>2011-03-26T14:06:37Z</time>
      </trkpt>
      <trkpt lat="43.75779" lon="7.25033">
        <ele>488</ele>
        <time>2011-03-26T14:06:41Z</time>
      </trkpt>
      <trkpt lat="43.7577" lon="7.25038">
        <ele>487</ele>
        <time>2011-03-26T14:06:43Z</time>
      </trkpt>
      <trkpt lat="43.75762" lon="7.25044">
        <ele>488</ele>
        <time>2011-03-26T14:06:46Z</time>
      </trkpt>
      <trkpt lat="43.75753" lon="7.25053">
        <ele>487</ele>
        <time>2011-03-26T14:06:50Z</time>
      </trkpt>
      <trkpt lat="43.75745" lon="7.2506">
        <ele>487</ele>
        <time>2011-03-26T14:06:53Z</time>
      </trkpt>
      <trkpt lat="43.75735" lon="7.25068">
        <ele>488</ele>
        <time>2011-03-26T14:06:57Z</time>
      </trkpt>
      <trkpt lat="43.75734" lon="7.2507">
        <ele>488</ele>
        <time>2011-03-26T14:06:57Z</time>
      </trkpt>
      <trkpt lat="43.75726" lon="7.25077">
        <ele>488</ele>
        <time>2011-03-26T14:07:00Z</time>
      </trkpt>
      <trkpt lat="43.75718" lon="7.25084">
        <ele>488</ele>
        <time>2011-03-26T14:07:03Z</time>
      </trkpt>
      <trkpt lat="43.75709" lon="7.25093">
        <ele>489</ele>
        <time>2011-03-26T14:07:07Z</time>
      </trkpt>
      <trkpt lat="43.75701" lon="7.25101">
        <ele>489</ele>
        <time>2011-03-26T14:07:11Z</time>
      </trkpt>
      <trkpt lat="43.75696" lon="7.25104">
        <ele>489</ele>
        <time>2011-03-26T14:07:13Z</time>
      </trkpt>
      <trkpt lat="43.75689" lon="7.25112">
        <ele>490</ele>
        <time>2011-03-26T14:07:20Z</time>
      </trkpt>
      <trkpt lat="43.75682" lon="7.25122">
        <ele>491</ele>
        <time>2011-03-26T14:07:26Z</time>
      </trkpt>
      <trkpt lat="43.75675" lon="7.25129">
        <ele>491</ele>
        <time>2011-03-26T14:07:31Z</time>
      </trkpt>
      <trkpt lat="43.75674" lon="7.25131">
        <ele>491</ele>
        <time>2011-03-26T14:07:32Z</time>
      </trkpt>
      <trkpt lat="43.75666" lon="7.25137">
        <ele>490</ele>
        <time>2011-03-26T14:07:37Z</time>
      </trkpt>
      <trkpt lat="43.75657" lon="7.25143">
        <ele>490</ele>
        <time>2011-03-26T14:07:42Z</time>
      </trkpt>
      <trkpt lat="43.75649" lon="7.25148">
        <ele>490</ele>
        <time>2011-03-26T14:07:47Z</time>
      </trkpt>
      <trkpt lat="43.75639" lon="7.2515">
        <ele>490</ele>
        <time>2011-03-26T14:07:51Z</time>
      </trkpt>
      <trkpt lat="43.7563" lon="7.25152">
        <ele>490</ele>
        <time>2011-03-26T14:07:55Z</time>
      </trkpt>
      <trkpt lat="43.7562" lon="7.25156">
        <ele>489</ele>
        <time>2011-03-26T14:07:58Z</time>
      </trkpt>
      <trkpt lat="43.75613" lon="7.25161">
        <ele>489</ele>
        <time>2011-03-26T14:08:01Z</time>
      </trkpt>
      <trkpt lat="43.75605" lon="7.25167">
        <ele>489</ele>
        <time>2011-03-26T14:08:05Z</time>
      </trkpt>
      <trkpt lat="43.75596" lon="7.25174">
        <ele>489</ele>
        <time>2011-03-26T14:08:09Z</time>
      </trkpt>
      <trkpt lat="43.75585" lon="7.25177">
        <ele>489</ele>
        <time>2011-03-26T14:08:12Z</time>
      </trkpt>
      <trkpt lat="43.75575" lon="7.25181">
        <ele>489</ele>
        <time>2011-03-26T14:08:16Z</time>
      </trkpt>
      <trkpt lat="43.75565" lon="7.25184">
        <ele>488</ele>
        <time>2011-03-26T14:08:20Z</time>
      </trkpt>
      <trkpt lat="43.75554" lon="7.25183">
        <ele>488</ele>
        <time>2011-03-26T14:08:24Z</time>
      </trkpt>
      <trkpt lat="43.75544" lon="7.25182">
        <ele>488</ele>
        <time>2011-03-26T14:08:27Z</time>
      </trkpt>
      <trkpt lat="43.75537" lon="7.25192">
        <ele>487</ele>
        <time>2011-03-26T14:08:33Z</time>
      </trkpt>
      <trkpt lat="43.75532" lon="7.25204">
        <ele>487</ele>
        <time>2011-03-26T14:08:39Z</time>
      </trkpt>
      <trkpt lat="43.75527" lon="7.25216">
        <ele>487</ele>
        <time>2011-03-26T14:08:46Z</time>
      </trkpt>
      <trkpt lat="43.75525" lon="7.25219">
        <ele>487</ele>
        <time>2011-03-26T14:08:48Z</time>
      </trkpt>
      <trkpt lat="43.75519" lon="7.2523">
        <ele>486</ele>
        <time>2011-03-26T14:08:53Z</time>
      </trkpt>
      <trkpt lat="43.75513" lon="7.2524">
        <ele>487</ele>
        <time>2011-03-26T14:08:59Z</time>
      </trkpt>
      <trkpt lat="43.75507" lon="7.25251">
        <ele>487</ele>
        <time>2011-03-26T14:09:05Z</time>
      </trkpt>
      <trkpt lat="43.75498" lon="7.25258">
        <ele>486</ele>
        <time>2011-03-26T14:09:10Z</time>
      </trkpt>
      <trkpt lat="43.7549" lon="7.25249">
        <ele>487</ele>
        <time>2011-03-26T14:09:15Z</time>
      </trkpt>
      <trkpt lat="43.75489" lon="7.25236">
        <ele>487</ele>
        <time>2011-03-26T14:09:19Z</time>
      </trkpt>
      <trkpt lat="43.75485" lon="7.25225">
        <ele>487</ele>
        <time>2011-03-26T14:09:22Z</time>
      </trkpt>
      <trkpt lat="43.75475" lon="7.25225">
        <ele>487</ele>
        <time>2011-03-26T14:09:26Z</time>
      </trkpt>
      <trkpt lat="43.75466" lon="7.25226">
        <ele>488</ele>
        <time>2011-03-26T14:09:30Z</time>
      </trkpt>
      <trkpt lat="43.75457" lon="7.25227">
        <ele>488</ele>
        <time>2011-03-26T14:09:39Z</time>
      </trkpt>
      <trkpt lat="43.75446" lon="7.25226">
        <ele>488</ele>
        <time>2011-03-26T14:09:49Z</time>
      </trkpt>
      <trkpt lat="43.75436" lon="7.25226">
        <ele>488</ele>
        <time>2011-03-26T14:09:54Z</time>
      </trkpt>
      <trkpt lat="43.75434" lon="7.25226">
        <ele>488</ele>
        <time>2011-03-26T14:09:54Z</time>
      </trkpt>
      <trkpt lat="43.75423" lon="7.25231">
        <ele>489</ele>
        <time>2011-03-26T14:09:58Z</time>
      </trkpt>
      <trkpt lat="43.75414" lon="7.25237">
        <ele>490</ele>
        <time>2011-03-26T14:10:01Z</time>
      </trkpt>
      <trkpt lat="43.75405" lon="7.25245">
        <ele>491</ele>
        <time>2011-03-26T14:10:04Z</time>
      </trkpt>
      <trkpt lat="43.75395" lon="7.25256">
        <ele>491</ele>
        <time>2011-03-26T14:10:07Z</time>
      </trkpt>
      <trkpt lat="43.75388" lon="7.25265">
        <ele>492</ele>
        <time>2011-03-26T14:10:09Z</time>
      </trkpt>
      <trkpt lat="43.75383" lon="7.25278">
        <ele>492</ele>
        <time>2011-03-26T14:10:12Z</time>
      </trkpt>
      <trkpt lat="43.75376" lon="7.25289">
        <ele>493</ele>
        <time>2011-03-26T14:10:15Z</time>
      </trkpt>
      <trkpt lat="43.75365" lon="7.25295">
        <ele>494</ele>
        <time>2011-03-26T14:10:18Z</time>
      </trkpt>
      <trkpt lat="43.75356" lon="7.25299">
        <ele>494</ele>
        <time>2011-03-26T14:10:20Z</time>
      </trkpt>
      <trkpt lat="43.75345" lon="7.25297">
        <ele>494</ele>
        <time>2011-03-26T14:10:23Z</time>
      </trkpt>
      <trkpt lat="43.75334" lon="7.25299">
        <ele>494</ele>
        <time>2011-03-26T14:10:25Z</time>
      </trkpt>
      <trkpt lat="43.75324" lon="7.25302">
        <ele>493</ele>
        <time>2011-03-26T14:10:27Z</time>
      </trkpt>
      <trkpt lat="43.75314" lon="7.25305">
        <ele>493</ele>
        <time>2011-03-26T14:10:29Z</time>
      </trkpt>
      <trkpt lat="43.75304" lon="7.25305">
        <ele>492</ele>
        <time>2011-03-26T14:10:31Z</time>
      </trkpt>
      <trkpt lat="43.75295" lon="7.25302">
        <ele>491</ele>
        <time>2011-03-26T14:10:34Z</time>
      </trkpt>
      <trkpt lat="43.75284" lon="7.253">
        <ele>490</ele>
        <time>2011-03-26T14:10:36Z</time>
      </trkpt>
      <trkpt lat="43.75274" lon="7.25297">
        <ele>489</ele>
        <time>2011-03-26T14:10:38Z</time>
      </trkpt>
      <trkpt lat="43.75265" lon="7.25294">
        <ele>488</ele>
        <time>2011-03-26T14:10:40Z</time>
      </trkpt>
      <trkpt lat="43.75255" lon="7.25292">
        <ele>487</ele>
        <time>2011-03-26T14:10:42Z</time>
      </trkpt>
      <trkpt lat="43.75243" lon="7.2529">
        <ele>485</ele>
        <time>2011-03-26T14:10:45Z</time>
      </trkpt>
      <trkpt lat="43.75232" lon="7.2529">
        <ele>485</ele>
        <time>2011-03-26T14:10:48Z</time>
      </trkpt>
      <trkpt lat="43.75224" lon="7.25294">
        <ele>486</ele>
        <time>2011-03-26T14:10:50Z</time>
      </trkpt>
      <trkpt lat="43.75212" lon="7.25296">
        <ele>488</ele>
        <time>2011-03-26T14:10:53Z</time>
      </trkpt>
      <trkpt lat="43.75203" lon="7.25297">
        <ele>490</ele>
        <time>2011-03-26T14:10:57Z</time>
      </trkpt>
      <trkpt lat="43.75194" lon="7.25302">
        <ele>491</ele>
        <time>2011-03-26T14:11:01Z</time>
      </trkpt>
      <trkpt lat="43.75186" lon="7.25312">
        <ele>492</ele>
        <time>2011-03-26T14:11:05Z</time>
      </trkpt>
      <trkpt lat="43.75177" lon="7.25315">
        <ele>494</ele>
        <time>2011-03-26T14:11:10Z</time>
      </trkpt>
      <trkpt lat="43.75169" lon="7.25319">
        <ele>495</ele>
        <time>2011-03-26T14:11:16Z</time>
      </trkpt>
      <trkpt lat="43.75164" lon="7.25321">
        <ele>495</ele>
        <time>2011-03-26T14:11:23Z</time>
      </trkpt>
      <trkpt lat="43.75155" lon="7.25315">
        <ele>495</ele>
        <time>2011-03-26T14:11:27Z</time>
      </trkpt>
      <trkpt lat="43.75146" lon="7.25315">
        <ele>493</ele>
        <time>2011-03-26T14:11:31Z</time>
      </trkpt>
      <trkpt lat="43.7514" lon="7.25324">
        <ele>492</ele>
        <time>2011-03-26T14:11:34Z</time>
      </trkpt>
      <trkpt lat="43.75133" lon="7.25337">
        <ele>492</ele>
        <time>2011-03-26T14:11:37Z</time>
      </trkpt>
      <trkpt lat="43.75126" lon="7.25346">
        <ele>492</ele>
        <time>2011-03-26T14:11:40Z</time>
      </trkpt>
      <trkpt lat="43.7512" lon="7.25355">
        <ele>491</ele>
        <time>2011-03-26T14:11:43Z</time>
      </trkpt>
      <trkpt lat="43.75112" lon="7.25362">
        <ele>491</ele>
        <time>2011-03-26T14:11:46Z</time>
      </trkpt>
      <trkpt lat="43.75105" lon="7.25372">
        <ele>492</ele>
        <time>2011-03-26T14:11:49Z</time>
      </trkpt>
      <trkpt lat="43.75099" lon="7.25382">
        <ele>492</ele>
        <time>2011-03-26T14:11:52Z</time>
      </trkpt>
      <trkpt lat="43.75094" lon="7.25387">
        <ele>491</ele>
        <time>2011-03-26T14:12:02Z</time>
      </trkpt>
      <trkpt lat="43.75087" lon="7.25396">
        <ele>487</ele>
        <time>2011-03-26T14:12:04Z</time>
      </trkpt>
      <trkpt lat="43.75082" lon="7.25406">
        <ele>482</ele>
        <time>2011-03-26T14:12:13Z</time>
      </trkpt>
      <trkpt lat="43.75082" lon="7.25406">
        <ele>482</ele>
        <time>2011-03-26T14:12:15Z</time>
      </trkpt>
      <trkpt lat="43.75073" lon="7.25415">
        <ele>479</ele>
        <time>2011-03-26T14:12:19Z</time>
      </trkpt>
      <trkpt lat="43.75063" lon="7.25427">
        <ele>478</ele>
        <time>2011-03-26T14:12:25Z</time>
      </trkpt>
      <trkpt lat="43.75062" lon="7.25427">
        <ele>477</ele>
        <time>2011-03-26T14:12:26Z</time>
      </trkpt>
      <trkpt lat="43.75053" lon="7.25431">
        <ele>472</ele>
        <time>2011-03-26T14:12:37Z</time>
      </trkpt>
      <trkpt lat="43.75041" lon="7.25432">
        <ele>467</ele>
        <time>2011-03-26T14:13:01Z</time>
      </trkpt>
      <trkpt lat="43.75028" lon="7.25435">
        <ele>463</ele>
        <time>2011-03-26T14:13:15Z</time>
      </trkpt>
      <trkpt lat="43.75019" lon="7.25433">
        <ele>462</ele>
        <time>2011-03-26T14:13:19Z</time>
      </trkpt>
      <trkpt lat="43.75014" lon="7.25433">
        <ele>461</ele>
        <time>2011-03-26T14:13:26Z</time>
      </trkpt>
      <trkpt lat="43.75005" lon="7.25435">
        <ele>461</ele>
        <time>2011-03-26T14:13:27Z</time>
      </trkpt>
      <trkpt lat="43.74989" lon="7.25436">
        <ele>461</ele>
        <time>2011-03-26T14:13:32Z</time>
      </trkpt>
      <trkpt lat="43.74975" lon="7.25436">
        <ele>461</ele>
        <time>2011-03-26T14:13:36Z</time>
      </trkpt>
      <trkpt lat="43.74975" lon="7.25436">
        <ele>461</ele>
        <time>2011-03-26T14:13:36Z</time>
      </trkpt>
      <trkpt lat="43.74962" lon="7.25434">
        <ele>461</ele>
        <time>2011-03-26T14:13:39Z</time>
      </trkpt>
      <trkpt lat="43.74954" lon="7.2543">
        <ele>461</ele>
        <time>2011-03-26T14:13:42Z</time>
      </trkpt>
      <trkpt lat="43.74942" lon="7.25427">
        <ele>461</ele>
        <time>2011-03-26T14:13:44Z</time>
      </trkpt>
      <trkpt lat="43.74932" lon="7.25425">
        <ele>460</ele>
        <time>2011-03-26T14:13:47Z</time>
      </trkpt>
      <trkpt lat="43.7492" lon="7.25421">
        <ele>461</ele>
        <time>2011-03-26T14:13:50Z</time>
      </trkpt>
      <trkpt lat="43.74908" lon="7.25419">
        <ele>460</ele>
        <time>2011-03-26T14:13:53Z</time>
      </trkpt>
      <trkpt lat="43.74898" lon="7.25418">
        <ele>460</ele>
        <time>2011-03-26T14:13:54Z</time>
      </trkpt>
      <trkpt lat="43.74885" lon="7.25414">
        <ele>458</ele>
        <time>2011-03-26T14:13:56Z</time>
      </trkpt>
      <trkpt lat="43.74881" lon="7.25413">
        <ele>458</ele>
        <time>2011-03-26T14:13:57Z</time>
      </trkpt>
      <trkpt lat="43.74872" lon="7.2541">
        <ele>457</ele>
        <time>2011-03-26T14:13:59Z</time>
      </trkpt>
      <trkpt lat="43.74861" lon="7.25407">
        <ele>456</ele>
        <time>2011-03-26T14:14:02Z</time>
      </trkpt>
      <trkpt lat="43.74852" lon="7.25401">
        <ele>455</ele>
        <time>2011-03-26T14:14:05Z</time>
      </trkpt>
      <trkpt lat="43.74844" lon="7.25394">
        <ele>454</ele>
        <time>2011-03-26T14:14:07Z</time>
      </trkpt>
      <trkpt lat="43.74835" lon="7.25386">
        <ele>453</ele>
        <time>2011-03-26T14:14:10Z</time>
      </trkpt>
      <trkpt lat="43.74824" lon="7.2538">
        <ele>453</ele>
        <time>2011-03-26T14:14:13Z</time>
      </trkpt>
      <trkpt lat="43.74821" lon="7.25378">
        <ele>454</ele>
        <time>2011-03-26T14:14:14Z</time>
      </trkpt>
      <trkpt lat="43.74812" lon="7.25373">
        <ele>455</ele>
        <time>2011-03-26T14:14:16Z</time>
      </trkpt>
      <trkpt lat="43.74801" lon="7.25368">
        <ele>455</ele>
        <time>2011-03-26T14:14:19Z</time>
      </trkpt>
      <trkpt lat="43.74793" lon="7.25364">
        <ele>456</ele>
        <time>2011-03-26T14:14:22Z</time>
      </trkpt>
      <trkpt lat="43.74783" lon="7.25358">
        <ele>456</ele>
        <time>2011-03-26T14:14:25Z</time>
      </trkpt>
      <trkpt lat="43.74777" lon="7.25356">
        <ele>456</ele>
        <time>2011-03-26T14:14:26Z</time>
      </trkpt>
      <trkpt lat="43.74767" lon="7.25353">
        <ele>456</ele>
        <time>2011-03-26T14:14:29Z</time>
      </trkpt>
      <trkpt lat="43.74767" lon="7.25353">
        <ele>456</ele>
        <time>2011-03-26T14:14:30Z</time>
      </trkpt>
      <trkpt lat="43.74756" lon="7.25351">
        <ele>456</ele>
        <time>2011-03-26T14:14:32Z</time>
      </trkpt>
      <trkpt lat="43.74745" lon="7.25353">
        <ele>455</ele>
        <time>2011-03-26T14:14:34Z</time>
      </trkpt>
      <trkpt lat="43.74736" lon="7.25355">
        <ele>455</ele>
        <time>2011-03-26T14:14:35Z</time>
      </trkpt>
      <trkpt lat="43.74726" lon="7.25357">
        <ele>453</ele>
        <time>2011-03-26T14:14:37Z</time>
      </trkpt>
      <trkpt lat="43.74715" lon="7.25354">
        <ele>452</ele>
        <time>2011-03-26T14:14:38Z</time>
      </trkpt>
      <trkpt lat="43.74703" lon="7.25352">
        <ele>450</ele>
        <time>2011-03-26T14:14:40Z</time>
      </trkpt>
      <trkpt lat="43.74692" lon="7.25348">
        <ele>448</ele>
        <time>2011-03-26T14:14:41Z</time>
      </trkpt>
      <trkpt lat="43.74682" lon="7.25343">
        <ele>446</ele>
        <time>2011-03-26T14:14:43Z</time>
      </trkpt>
      <trkpt lat="43.74678" lon="7.25339">
        <ele>445</ele>
        <time>2011-03-26T14:14:43Z</time>
      </trkpt>
      <trkpt lat="43.7467" lon="7.25331">
        <ele>444</ele>
        <time>2011-03-26T14:14:45Z</time>
      </trkpt>
      <trkpt lat="43.74663" lon="7.25322">
        <ele>443</ele>
        <time>2011-03-26T14:14:46Z</time>
      </trkpt>
      <trkpt lat="43.74656" lon="7.25313">
        <ele>442</ele>
        <time>2011-03-26T14:14:48Z</time>
      </trkpt>
      <trkpt lat="43.74652" lon="7.25296">
        <ele>440</ele>
        <time>2011-03-26T14:14:50Z</time>
      </trkpt>
      <trkpt lat="43.74647" lon="7.25282">
        <ele>439</ele>
        <time>2011-03-26T14:14:53Z</time>
      </trkpt>
      <trkpt lat="43.7464" lon="7.25275">
        <ele>437</ele>
        <time>2011-03-26T14:14:55Z</time>
      </trkpt>
      <trkpt lat="43.74631" lon="7.25267">
        <ele>434</ele>
        <time>2011-03-26T14:14:58Z</time>
      </trkpt>
      <trkpt lat="43.74628" lon="7.25261">
        <ele>433</ele>
        <time>2011-03-26T14:14:59Z</time>
      </trkpt>
      <trkpt lat="43.7463" lon="7.25249">
        <ele>432</ele>
        <time>2011-03-26T14:15:02Z</time>
      </trkpt>
      <trkpt lat="43.74636" lon="7.25239">
        <ele>431</ele>
        <time>2011-03-26T14:15:04Z</time>
      </trkpt>
      <trkpt lat="43.74641" lon="7.25227">
        <ele>428</ele>
        <time>2011-03-26T14:15:08Z</time>
      </trkpt>
      <trkpt lat="43.74641" lon="7.25214">
        <ele>426</ele>
        <time>2011-03-26T14:15:12Z</time>
      </trkpt>
      <trkpt lat="43.74631" lon="7.25213">
        <ele>423</ele>
        <time>2011-03-26T14:15:17Z</time>
      </trkpt>
      <trkpt lat="43.7462" lon="7.25217">
        <ele>418</ele>
        <time>2011-03-26T14:15:23Z</time>
      </trkpt>
      <trkpt lat="43.74606" lon="7.25207">
        <ele>417</ele>
        <time>2011-03-26T14:15:35Z</time>
      </trkpt>
      <trkpt lat="43.746" lon="7.25194">
        <ele>418</ele>
        <time>2011-03-26T14:15:38Z</time>
      </trkpt>
      <trkpt lat="43.74597" lon="7.2518">
        <ele>421</ele>
        <time>2011-03-26T14:15:41Z</time>
      </trkpt>
      <trkpt lat="43.74596" lon="7.25166">
        <ele>422</ele>
        <time>2011-03-26T14:15:44Z</time>
      </trkpt>
      <trkpt lat="43.74597" lon="7.25153">
        <ele>423</ele>
        <time>2011-03-26T14:15:48Z</time>
      </trkpt>
      <trkpt lat="43.746" lon="7.2514">
        <ele>425</ele>
        <time>2011-03-26T14:15:51Z</time>
      </trkpt>
      <trkpt lat="43.74596" lon="7.25128">
        <ele>425</ele>
        <time>2011-03-26T14:15:55Z</time>
      </trkpt>
      <trkpt lat="43.7459" lon="7.25119">
        <ele>424</ele>
        <time>2011-03-26T14:15:58Z</time>
      </trkpt>
      <trkpt lat="43.74584" lon="7.25113">
        <ele>422</ele>
        <time>2011-03-26T14:16:00Z</time>
      </trkpt>
      <trkpt lat="43.74575" lon="7.25106">
        <ele>420</ele>
        <time>2011-03-26T14:16:03Z</time>
      </trkpt>
      <trkpt lat="43.74565" lon="7.25097">
        <ele>417</ele>
        <time>2011-03-26T14:16:06Z</time>
      </trkpt>
      <trkpt lat="43.74557" lon="7.25088">
        <ele>415</ele>
        <time>2011-03-26T14:16:09Z</time>
      </trkpt>
      <trkpt lat="43.74549" lon="7.25076">
        <ele>412</ele>
        <time>2011-03-26T14:16:12Z</time>
      </trkpt>
      <trkpt lat="43.74543" lon="7.25064">
        <ele>409</ele>
        <time>2011-03-26T14:16:15Z</time>
      </trkpt>
      <trkpt lat="43.74539" lon="7.25051">
        <ele>409</ele>
        <time>2011-03-26T14:16:18Z</time>
      </trkpt>
      <trkpt lat="43.74536" lon="7.25038">
        <ele>411</ele>
        <time>2011-03-26T14:16:22Z</time>
      </trkpt>
      <trkpt lat="43.74538" lon="7.25024">
        <ele>412</ele>
        <time>2011-03-26T14:16:25Z</time>
      </trkpt>
      <trkpt lat="43.74536" lon="7.25008">
        <ele>412</ele>
        <time>2011-03-26T14:16:28Z</time>
      </trkpt>
      <trkpt lat="43.74528" lon="7.24995">
        <ele>409</ele>
        <time>2011-03-26T14:16:30Z</time>
      </trkpt>
      <trkpt lat="43.74519" lon="7.24986">
        <ele>407</ele>
        <time>2011-03-26T14:16:31Z</time>
      </trkpt>
      <trkpt lat="43.7451" lon="7.24978">
        <ele>404</ele>
        <time>2011-03-26T14:16:33Z</time>
      </trkpt>
      <trkpt lat="43.74501" lon="7.24972">
        <ele>401</ele>
        <time>2011-03-26T14:16:34Z</time>
      </trkpt>
      <trkpt lat="43.74493" lon="7.24966">
        <ele>399</ele>
        <time>2011-03-26T14:16:36Z</time>
      </trkpt>
      <trkpt lat="43.74484" lon="7.2496">
        <ele>397</ele>
        <time>2011-03-26T14:16:37Z</time>
      </trkpt>
      <trkpt lat="43.74476" lon="7.24955">
        <ele>395</ele>
        <time>2011-03-26T14:16:39Z</time>
      </trkpt>
      <trkpt lat="43.74468" lon="7.24949">
        <ele>393</ele>
        <time>2011-03-26T14:16:40Z</time>
      </trkpt>
      <trkpt lat="43.74456" lon="7.24942">
        <ele>391</ele>
        <time>2011-03-26T14:16:42Z</time>
      </trkpt>
      <trkpt lat="43.74446" lon="7.24937">
        <ele>390</ele>
        <time>2011-03-26T14:16:45Z</time>
      </trkpt>
      <trkpt lat="43.74436" lon="7.24933">
        <ele>389</ele>
        <time>2011-03-26T14:16:47Z</time>
      </trkpt>
      <trkpt lat="43.74426" lon="7.24929">
        <ele>389</ele>
        <time>2011-03-26T14:16:49Z</time>
      </trkpt>
      <trkpt lat="43.74416" lon="7.24927">
        <ele>389</ele>
        <time>2011-03-26T14:16:51Z</time>
      </trkpt>
      <trkpt lat="43.74406" lon="7.24926">
        <ele>389</ele>
        <time>2011-03-26T14:16:53Z</time>
      </trkpt>
      <trkpt lat="43.74396" lon="7.24925">
        <ele>389</ele>
        <time>2011-03-26T14:16:55Z</time>
      </trkpt>
      <trkpt lat="43.74386" lon="7.24926">
        <ele>389</ele>
        <time>2011-03-26T14:16:58Z</time>
      </trkpt>
      <trkpt lat="43.74377" lon="7.24926">
        <ele>390</ele>
        <time>2011-03-26T14:17:00Z</time>
      </trkpt>
      <trkpt lat="43.74367" lon="7.24926">
        <ele>390</ele>
        <time>2011-03-26T14:17:02Z</time>
      </trkpt>
      <trkpt lat="43.74364" lon="7.24926">
        <ele>390</ele>
        <time>2011-03-26T14:17:03Z</time>
      </trkpt>
      <trkpt lat="43.74355" lon="7.24926">
        <ele>390</ele>
        <time>2011-03-26T14:17:05Z</time>
      </trkpt>
      <trkpt lat="43.74346" lon="7.24927">
        <ele>390</ele>
        <time>2011-03-26T14:17:07Z</time>
      </trkpt>
      <trkpt lat="43.74334" lon="7.24928">
        <ele>390</ele>
        <time>2011-03-26T14:17:10Z</time>
      </trkpt>
      <trkpt lat="43.74324" lon="7.24934">
        <ele>389</ele>
        <time>2011-03-26T14:17:13Z</time>
      </trkpt>
      <trkpt lat="43.74318" lon="7.24945">
        <ele>389</ele>
        <time>2011-03-26T14:17:16Z</time>
      </trkpt>
      <trkpt lat="43.74316" lon="7.24953">
        <ele>389</ele>
        <time>2011-03-26T14:17:18Z</time>
      </trkpt>
      <trkpt lat="43.74317" lon="7.24965">
        <ele>389</ele>
        <time>2011-03-26T14:17:20Z</time>
      </trkpt>
      <trkpt lat="43.74321" lon="7.2498">
        <ele>389</ele>
        <time>2011-03-26T14:17:22Z</time>
      </trkpt>
      <trkpt lat="43.74326" lon="7.24995">
        <ele>389</ele>
        <time>2011-03-26T14:17:25Z</time>
      </trkpt>
      <trkpt lat="43.7433" lon="7.25006">
        <ele>389</ele>
        <time>2011-03-26T14:17:26Z</time>
      </trkpt>
      <trkpt lat="43.74336" lon="7.25024">
        <ele>389</ele>
        <time>2011-03-26T14:17:28Z</time>
      </trkpt>
      <trkpt lat="43.74338" lon="7.25036">
        <ele>389</ele>
        <time>2011-03-26T14:17:30Z</time>
      </trkpt>
      <trkpt lat="43.74338" lon="7.2505">
        <ele>389</ele>
        <time>2011-03-26T14:17:31Z</time>
      </trkpt>
      <trkpt lat="43.74337" lon="7.25064">
        <ele>388</ele>
        <time>2011-03-26T14:17:33Z</time>
      </trkpt>
      <trkpt lat="43.74335" lon="7.25077">
        <ele>388</ele>
        <time>2011-03-26T14:17:34Z</time>
      </trkpt>
      <trkpt lat="43.74331" lon="7.2509">
        <ele>388</ele>
        <time>2011-03-26T14:17:36Z</time>
      </trkpt>
      <trkpt lat="43.74325" lon="7.25103">
        <ele>388</ele>
        <time>2011-03-26T14:17:37Z</time>
      </trkpt>
      <trkpt lat="43.74316" lon="7.25111">
        <ele>387</ele>
        <time>2011-03-26T14:17:39Z</time>
      </trkpt>
      <trkpt lat="43.74305" lon="7.25113">
        <ele>387</ele>
        <time>2011-03-26T14:17:40Z</time>
      </trkpt>
      <trkpt lat="43.74293" lon="7.25112">
        <ele>386</ele>
        <time>2011-03-26T14:17:42Z</time>
      </trkpt>
      <trkpt lat="43.7428" lon="7.25111">
        <ele>386</ele>
        <time>2011-03-26T14:17:43Z</time>
      </trkpt>
      <trkpt lat="43.74268" lon="7.25108">
        <ele>386</ele>
        <time>2011-03-26T14:17:45Z</time>
      </trkpt>
      <trkpt lat="43.74256" lon="7.25106">
        <ele>385</ele>
        <time>2011-03-26T14:17:46Z</time>
      </trkpt>
      <trkpt lat="43.74243" lon="7.25104">
        <ele>384</ele>
        <time>2011-03-26T14:17:48Z</time>
      </trkpt>
      <trkpt lat="43.7423" lon="7.25103">
        <ele>383</ele>
        <time>2011-03-26T14:17:49Z</time>
      </trkpt>
      <trkpt lat="43.74217" lon="7.25102">
        <ele>381</ele>
        <time>2011-03-26T14:17:51Z</time>
      </trkpt>
      <trkpt lat="43.74204" lon="7.25101">
        <ele>380</ele>
        <time>2011-03-26T14:17:52Z</time>
      </trkpt>
      <trkpt lat="43.74191" lon="7.251">
        <ele>379</ele>
        <time>2011-03-26T14:17:54Z</time>
      </trkpt>
      <trkpt lat="43.74179" lon="7.251">
        <ele>378</ele>
        <time>2011-03-26T14:17:55Z</time>
      </trkpt>
      <trkpt lat="43.74166" lon="7.25101">
        <ele>378</ele>
        <time>2011-03-26T14:17:57Z</time>
      </trkpt>
      <trkpt lat="43.74155" lon="7.25104">
        <ele>378</ele>
        <time>2011-03-26T14:17:58Z</time>
      </trkpt>
      <trkpt lat="43.74144" lon="7.25109">
        <ele>377</ele>
        <time>2011-03-26T14:18:00Z</time>
      </trkpt>
      <trkpt lat="43.74133" lon="7.25114">
        <ele>377</ele>
        <time>2011-03-26T14:18:02Z</time>
      </trkpt>
      <trkpt lat="43.74122" lon="7.25117">
        <ele>376</ele>
        <time>2011-03-26T14:18:03Z</time>
      </trkpt>
      <trkpt lat="43.7411" lon="7.25117">
        <ele>376</ele>
        <time>2011-03-26T14:18:04Z</time>
      </trkpt>
      <trkpt lat="43.74098" lon="7.25117">
        <ele>376</ele>
        <time>2011-03-26T14:18:06Z</time>
      </trkpt>
      <trkpt lat="43.74087" lon="7.25116">
        <ele>376</ele>
        <time>2011-03-26T14:18:08Z</time>
      </trkpt>
      <trkpt lat="43.74075" lon="7.25116">
        <ele>375</ele>
        <time>2011-03-26T14:18:09Z</time>
      </trkpt>
      <trkpt lat="43.74064" lon="7.25116">
        <ele>375</ele>
        <time>2011-03-26T14:18:11Z</time>
      </trkpt>
      <trkpt lat="43.74052" lon="7.25117">
        <ele>374</ele>
        <time>2011-03-26T14:18:12Z</time>
      </trkpt>
      <trkpt lat="43.74041" lon="7.25118">
        <ele>374</ele>
        <time>2011-03-26T14:18:14Z</time>
      </trkpt>
      <trkpt lat="43.7403" lon="7.25119">
        <ele>373</ele>
        <time>2011-03-26T14:18:15Z</time>
      </trkpt>
      <trkpt lat="43.74018" lon="7.25122">
        <ele>372</ele>
        <time>2011-03-26T14:18:17Z</time>
      </trkpt>
      <trkpt lat="43.74006" lon="7.25126">
        <ele>371</ele>
        <time>2011-03-26T14:18:18Z</time>
      </trkpt>
      <trkpt lat="43.73994" lon="7.25129">
        <ele>371</ele>
        <time>2011-03-26T14:18:20Z</time>
      </trkpt>
      <trkpt lat="43.73983" lon="7.25134">
        <ele>371</ele>
        <time>2011-03-26T14:18:21Z</time>
      </trkpt>
      <trkpt lat="43.73971" lon="7.25138">
        <ele>370</ele>
        <time>2011-03-26T14:18:23Z</time>
      </trkpt>
      <trkpt lat="43.7396" lon="7.25142">
        <ele>370</ele>
        <time>2011-03-26T14:18:24Z</time>
      </trkpt>
      <trkpt lat="43.7395" lon="7.25146">
        <ele>370</ele>
        <time>2011-03-26T14:18:26Z</time>
      </trkpt>
      <trkpt lat="43.73939" lon="7.2515">
        <ele>370</ele>
        <time>2011-03-26T14:18:27Z</time>
      </trkpt>
      <trkpt lat="43.73929" lon="7.25154">
        <ele>369</ele>
        <time>2011-03-26T14:18:29Z</time>
      </trkpt>
      <trkpt lat="43.73919" lon="7.25158">
        <ele>369</ele>
        <time>2011-03-26T14:18:30Z</time>
      </trkpt>
      <trkpt lat="43.7391" lon="7.25159">
        <ele>369</ele>
        <time>2011-03-26T14:18:32Z</time>
      </trkpt>
      <trkpt lat="43.73898" lon="7.25164">
        <ele>368</ele>
        <time>2011-03-26T14:18:34Z</time>
      </trkpt>
      <trkpt lat="43.7389" lon="7.25171">
        <ele>348</ele>
        <time>2011-03-26T14:20:02Z</time>
      </trkpt>
      <trkpt lat="43.73885" lon="7.25184">
        <ele>348</ele>
        <time>2011-03-26T14:20:05Z</time>
      </trkpt>
      <trkpt lat="43.73883" lon="7.25199">
        <ele>348</ele>
        <time>2011-03-26T14:20:08Z</time>
      </trkpt>
      <trkpt lat="43.73882" lon="7.25212">
        <ele>348</ele>
        <time>2011-03-26T14:20:09Z</time>
      </trkpt>
      <trkpt lat="43.7388" lon="7.25225">
        <ele>348</ele>
        <time>2011-03-26T14:20:11Z</time>
      </trkpt>
      <trkpt lat="43.73877" lon="7.25239">
        <ele>349</ele>
        <time>2011-03-26T14:20:12Z</time>
      </trkpt>
      <trkpt lat="43.73871" lon="7.25252">
        <ele>349</ele>
        <time>2011-03-26T14:20:14Z</time>
      </trkpt>
      <trkpt lat="43.73861" lon="7.25262">
        <ele>350</ele>
        <time>2011-03-26T14:20:15Z</time>
      </trkpt>
      <trkpt lat="43.73849" lon="7.25269">
        <ele>350</ele>
        <time>2011-03-26T14:20:17Z</time>
      </trkpt>
      <trkpt lat="43.73836" lon="7.25272">
        <ele>351</ele>
        <time>2011-03-26T14:20:19Z</time>
      </trkpt>
      <trkpt lat="43.73823" lon="7.25276">
        <ele>351</ele>
        <time>2011-03-26T14:20:20Z</time>
      </trkpt>
      <trkpt lat="43.73811" lon="7.2528">
        <ele>351</ele>
        <time>2011-03-26T14:20:22Z</time>
      </trkpt>
      <trkpt lat="43.73798" lon="7.25284">
        <ele>352</ele>
        <time>2011-03-26T14:20:23Z</time>
      </trkpt>
      <trkpt lat="43.73787" lon="7.25286">
        <ele>352</ele>
        <time>2011-03-26T14:20:25Z</time>
      </trkpt>
      <trkpt lat="43.73775" lon="7.2529">
        <ele>352</ele>
        <time>2011-03-26T14:20:27Z</time>
      </trkpt>
      <trkpt lat="43.73766" lon="7.25299">
        <ele>353</ele>
        <time>2011-03-26T14:20:29Z</time>
      </trkpt>
      <trkpt lat="43.73759" lon="7.25308">
        <ele>354</ele>
        <time>2011-03-26T14:20:31Z</time>
      </trkpt>
      <trkpt lat="43.73756" lon="7.25314">
        <ele>354</ele>
        <time>2011-03-26T14:20:33Z</time>
      </trkpt>
      <trkpt lat="43.73753" lon="7.25327">
        <ele>354</ele>
        <time>2011-03-26T14:20:37Z</time>
      </trkpt>
      <trkpt lat="43.73753" lon="7.25342">
        <ele>354</ele>
        <time>2011-03-26T14:20:41Z</time>
      </trkpt>
      <trkpt lat="43.73756" lon="7.25355">
        <ele>354</ele>
        <time>2011-03-26T14:20:46Z</time>
      </trkpt>
      <trkpt lat="43.7376" lon="7.25368">
        <ele>353</ele>
        <time>2011-03-26T14:20:50Z</time>
      </trkpt>
      <trkpt lat="43.73764" lon="7.25379">
        <ele>353</ele>
        <time>2011-03-26T14:20:55Z</time>
      </trkpt>
      <trkpt lat="43.7377" lon="7.25391">
        <ele>353</ele>
        <time>2011-03-26T14:21:00Z</time>
      </trkpt>
      <trkpt lat="43.73776" lon="7.25402">
        <ele>352</ele>
        <time>2011-03-26T14:21:04Z</time>
      </trkpt>
      <trkpt lat="43.73782" lon="7.25411">
        <ele>351</ele>
        <time>2011-03-26T14:21:09Z</time>
      </trkpt>
      <trkpt lat="43.7379" lon="7.25419">
        <ele>351</ele>
        <time>2011-03-26T14:21:13Z</time>
      </trkpt>
      <trkpt lat="43.73798" lon="7.25426">
        <ele>352</ele>
        <time>2011-03-26T14:21:18Z</time>
      </trkpt>
      <trkpt lat="43.73806" lon="7.25433">
        <ele>352</ele>
        <time>2011-03-26T14:21:22Z</time>
      </trkpt>
      <trkpt lat="43.73814" lon="7.25441">
        <ele>352</ele>
        <time>2011-03-26T14:21:28Z</time>
      </trkpt>
      <trkpt lat="43.73822" lon="7.25448">
        <ele>353</ele>
        <time>2011-03-26T14:21:32Z</time>
      </trkpt>
      <trkpt lat="43.7383" lon="7.25456">
        <ele>352</ele>
        <time>2011-03-26T14:21:37Z</time>
      </trkpt>
      <trkpt lat="43.73839" lon="7.25463">
        <ele>352</ele>
        <time>2011-03-26T14:21:43Z</time>
      </trkpt>
      <trkpt lat="43.73848" lon="7.25468">
        <ele>352</ele>
        <time>2011-03-26T14:21:48Z</time>
      </trkpt>
      <trkpt lat="43.73858" lon="7.25471">
        <ele>352</ele>
        <time>2011-03-26T14:21:53Z</time>
      </trkpt>
      <trkpt lat="43.73868" lon="7.25473">
        <ele>352</ele>
        <time>2011-03-26T14:21:58Z</time>
      </trkpt>
      <trkpt lat="43.73878" lon="7.25474">
        <ele>353</ele>
        <time>2011-03-26T14:22:03Z</time>
      </trkpt>
      <trkpt lat="43.73887" lon="7.25477">
        <ele>353</ele>
        <time>2011-03-26T14:22:08Z</time>
      </trkpt>
      <trkpt lat="43.73889" lon="7.25478">
        <ele>353</ele>
        <time>2011-03-26T14:22:09Z</time>
      </trkpt>
      <trkpt lat="43.73898" lon="7.25484">
        <ele>354</ele>
        <time>2011-03-26T14:22:15Z</time>
      </trkpt>
      <trkpt lat="43.73906" lon="7.25492">
        <ele>355</ele>
        <time>2011-03-26T14:22:19Z</time>
      </trkpt>
      <trkpt lat="43.73913" lon="7.255">
        <ele>355</ele>
        <time>2011-03-26T14:22:24Z</time>
      </trkpt>
      <trkpt lat="43.7392" lon="7.25508">
        <ele>356</ele>
        <time>2011-03-26T14:22:28Z</time>
      </trkpt>
      <trkpt lat="43.73928" lon="7.25517">
        <ele>356</ele>
        <time>2011-03-26T14:22:33Z</time>
      </trkpt>
      <trkpt lat="43.73935" lon="7.25526">
        <ele>355</ele>
        <time>2011-03-26T14:22:38Z</time>
      </trkpt>
      <trkpt lat="43.73943" lon="7.25534">
        <ele>357</ele>
        <time>2011-03-26T14:22:43Z</time>
      </trkpt>
      <trkpt lat="43.7395" lon="7.25542">
        <ele>357</ele>
        <time>2011-03-26T14:22:49Z</time>
      </trkpt>
      <trkpt lat="43.73954" lon="7.25546">
        <ele>357</ele>
        <time>2011-03-26T14:22:51Z</time>
      </trkpt>
      <trkpt lat="43.73961" lon="7.25556">
        <ele>358</ele>
        <time>2011-03-26T14:22:56Z</time>
      </trkpt>
      <trkpt lat="43.73968" lon="7.25565">
        <ele>359</ele>
        <time>2011-03-26T14:23:01Z</time>
      </trkpt>
      <trkpt lat="43.73974" lon="7.25575">
        <ele>359</ele>
        <time>2011-03-26T14:23:06Z</time>
      </trkpt>
      <trkpt lat="43.7398" lon="7.25585">
        <ele>359</ele>
        <time>2011-03-26T14:23:10Z</time>
      </trkpt>
      <trkpt lat="43.73984" lon="7.25598">
        <ele>360</ele>
        <time>2011-03-26T14:23:16Z</time>
      </trkpt>
      <trkpt lat="43.73986" lon="7.25611">
        <ele>361</ele>
        <time>2011-03-26T14:23:21Z</time>
      </trkpt>
      <trkpt lat="43.73989" lon="7.25624">
        <ele>361</ele>
        <time>2011-03-26T14:23:27Z</time>
      </trkpt>
      <trkpt lat="43.7399" lon="7.25637">
        <ele>362</ele>
        <time>2011-03-26T14:23:31Z</time>
      </trkpt>
      <trkpt lat="43.7399" lon="7.25646">
        <ele>363</ele>
        <time>2011-03-26T14:23:35Z</time>
      </trkpt>
      <trkpt lat="43.73991" lon="7.25659">
        <ele>363</ele>
        <time>2011-03-26T14:23:40Z</time>
      </trkpt>
      <trkpt lat="43.73993" lon="7.25673">
        <ele>364</ele>
        <time>2011-03-26T14:23:46Z</time>
      </trkpt>
      <trkpt lat="43.73994" lon="7.25686">
        <ele>364</ele>
        <time>2011-03-26T14:23:51Z</time>
      </trkpt>
      <trkpt lat="43.73994" lon="7.25694">
        <ele>364</ele>
        <time>2011-03-26T14:23:54Z</time>
      </trkpt>
      <trkpt lat="43.73995" lon="7.25708">
        <ele>365</ele>
        <time>2011-03-26T14:23:59Z</time>
      </trkpt>
      <trkpt lat="43.73997" lon="7.25717">
        <ele>366</ele>
        <time>2011-03-26T14:24:03Z</time>
      </trkpt>
      <trkpt lat="43.73999" lon="7.2573">
        <ele>367</ele>
        <time>2011-03-26T14:24:08Z</time>
      </trkpt>
      <trkpt lat="43.74002" lon="7.25743">
        <ele>369</ele>
        <time>2011-03-26T14:24:14Z</time>
      </trkpt>
      <trkpt lat="43.74005" lon="7.25754">
        <ele>369</ele>
        <time>2011-03-26T14:24:19Z</time>
      </trkpt>
      <trkpt lat="43.7401" lon="7.25766">
        <ele>370</ele>
        <time>2011-03-26T14:24:25Z</time>
      </trkpt>
      <trkpt lat="43.74015" lon="7.25777">
        <ele>370</ele>
        <time>2011-03-26T14:24:30Z</time>
      </trkpt>
      <trkpt lat="43.7402" lon="7.2579">
        <ele>369</ele>
        <time>2011-03-26T14:24:35Z</time>
      </trkpt>
      <trkpt lat="43.74026" lon="7.25801">
        <ele>370</ele>
        <time>2011-03-26T14:24:41Z</time>
      </trkpt>
      <trkpt lat="43.74033" lon="7.25811">
        <ele>370</ele>
        <time>2011-03-26T14:24:46Z</time>
      </trkpt>
      <trkpt lat="43.7404" lon="7.25821">
        <ele>369</ele>
        <time>2011-03-26T14:24:51Z</time>
      </trkpt>
      <trkpt lat="43.74048" lon="7.25829">
        <ele>369</ele>
        <time>2011-03-26T14:24:57Z</time>
      </trkpt>
      <trkpt lat="43.74054" lon="7.25834">
        <ele>370</ele>
        <time>2011-03-26T14:25:00Z</time>
      </trkpt>
      <trkpt lat="43.74062" lon="7.25843">
        <ele>370</ele>
        <time>2011-03-26T14:25:06Z</time>
      </trkpt>
      <trkpt lat="43.74067" lon="7.25849">
        <ele>371</ele>
        <time>2011-03-26T14:25:09Z</time>
      </trkpt>
      <trkpt lat="43.74074" lon="7.25857">
        <ele>372</ele>
        <time>2011-03-26T14:25:14Z</time>
      </trkpt>
      <trkpt lat="43.74081" lon="7.25865">
        <ele>373</ele>
        <time>2011-03-26T14:25:19Z</time>
      </trkpt>
      <trkpt lat="43.74089" lon="7.25874">
        <ele>372</ele>
        <time>2011-03-26T14:25:23Z</time>
      </trkpt>
      <trkpt lat="43.74096" lon="7.25882">
        <ele>372</ele>
        <time>2011-03-26T14:25:28Z</time>
      </trkpt>
      <trkpt lat="43.74103" lon="7.2589">
        <ele>372</ele>
        <time>2011-03-26T14:25:32Z</time>
      </trkpt>
      <trkpt lat="43.74111" lon="7.25897">
        <ele>373</ele>
        <time>2011-03-26T14:25:37Z</time>
      </trkpt>
      <trkpt lat="43.74116" lon="7.25902">
        <ele>373</ele>
        <time>2011-03-26T14:25:40Z</time>
      </trkpt>
      <trkpt lat="43.74124" lon="7.2591">
        <ele>374</ele>
        <time>2011-03-26T14:25:44Z</time>
      </trkpt>
      <trkpt lat="43.74132" lon="7.25917">
        <ele>374</ele>
        <time>2011-03-26T14:25:50Z</time>
      </trkpt>
      <trkpt lat="43.7414" lon="7.25923">
        <ele>375</ele>
        <time>2011-03-26T14:25:55Z</time>
      </trkpt>
      <trkpt lat="43.74143" lon="7.25926">
        <ele>375</ele>
        <time>2011-03-26T14:25:57Z</time>
      </trkpt>
      <trkpt lat="43.74152" lon="7.25932">
        <ele>376</ele>
        <time>2011-03-26T14:26:02Z</time>
      </trkpt>
      <trkpt lat="43.74161" lon="7.25937">
        <ele>376</ele>
        <time>2011-03-26T14:26:06Z</time>
      </trkpt>
      <trkpt lat="43.74171" lon="7.25941">
        <ele>376</ele>
        <time>2011-03-26T14:26:11Z</time>
      </trkpt>
      <trkpt lat="43.74182" lon="7.25944">
        <ele>377</ele>
        <time>2011-03-26T14:26:15Z</time>
      </trkpt>
      <trkpt lat="43.74191" lon="7.25948">
        <ele>377</ele>
        <time>2011-03-26T14:26:19Z</time>
      </trkpt>
      <trkpt lat="43.742" lon="7.25951">
        <ele>377</ele>
        <time>2011-03-26T14:26:23Z</time>
      </trkpt>
      <trkpt lat="43.7421" lon="7.25957">
        <ele>377</ele>
        <time>2011-03-26T14:26:27Z</time>
      </trkpt>
      <trkpt lat="43.74218" lon="7.25965">
        <ele>377</ele>
        <time>2011-03-26T14:26:32Z</time>
      </trkpt>
      <trkpt lat="43.74224" lon="7.25976">
        <ele>378</ele>
        <time>2011-03-26T14:26:36Z</time>
      </trkpt>
      <trkpt lat="43.74229" lon="7.25987">
        <ele>380</ele>
        <time>2011-03-26T14:26:41Z</time>
      </trkpt>
      <trkpt lat="43.74234" lon="7.26">
        <ele>382</ele>
        <time>2011-03-26T14:26:45Z</time>
      </trkpt>
      <trkpt lat="43.74238" lon="7.26011">
        <ele>383</ele>
        <time>2011-03-26T14:26:49Z</time>
      </trkpt>
      <trkpt lat="43.74242" lon="7.26024">
        <ele>384</ele>
        <time>2011-03-26T14:26:53Z</time>
      </trkpt>
      <trkpt lat="43.74246" lon="7.26036">
        <ele>386</ele>
        <time>2011-03-26T14:26:57Z</time>
      </trkpt>
      <trkpt lat="43.74251" lon="7.26048">
        <ele>387</ele>
        <time>2011-03-26T14:27:00Z</time>
      </trkpt>
      <trkpt lat="43.74255" lon="7.26061">
        <ele>387</ele>
        <time>2011-03-26T14:27:04Z</time>
      </trkpt>
      <trkpt lat="43.74258" lon="7.26074">
        <ele>388</ele>
        <time>2011-03-26T14:27:08Z</time>
      </trkpt>
      <trkpt lat="43.74259" lon="7.26077">
        <ele>388</ele>
        <time>2011-03-26T14:27:09Z</time>
      </trkpt>
      <trkpt lat="43.74263" lon="7.2609">
        <ele>387</ele>
        <time>2011-03-26T14:27:13Z</time>
      </trkpt>
      <trkpt lat="43.74267" lon="7.26103">
        <ele>388</ele>
        <time>2011-03-26T14:27:16Z</time>
      </trkpt>
      <trkpt lat="43.74271" lon="7.26116">
        <ele>387</ele>
        <time>2011-03-26T14:27:20Z</time>
      </trkpt>
      <trkpt lat="43.74275" lon="7.2613">
        <ele>387</ele>
        <time>2011-03-26T14:27:24Z</time>
      </trkpt>
      <trkpt lat="43.7428" lon="7.26144">
        <ele>387</ele>
        <time>2011-03-26T14:27:28Z</time>
      </trkpt>
      <trkpt lat="43.74283" lon="7.26158">
        <ele>387</ele>
        <time>2011-03-26T14:27:32Z</time>
      </trkpt>
      <trkpt lat="43.74287" lon="7.26171">
        <ele>386</ele>
        <time>2011-03-26T14:27:35Z</time>
      </trkpt>
      <trkpt lat="43.74291" lon="7.26183">
        <ele>386</ele>
        <time>2011-03-26T14:27:37Z</time>
      </trkpt>
      <trkpt lat="43.74295" lon="7.26195">
        <ele>386</ele>
        <time>2011-03-26T14:27:39Z</time>
      </trkpt>
      <trkpt lat="43.74299" lon="7.26206">
        <ele>386</ele>
        <time>2011-03-26T14:27:42Z</time>
      </trkpt>
      <trkpt lat="43.74304" lon="7.26218">
        <ele>385</ele>
        <time>2011-03-26T14:27:44Z</time>
      </trkpt>
      <trkpt lat="43.74309" lon="7.2623">
        <ele>385</ele>
        <time>2011-03-26T14:27:46Z</time>
      </trkpt>
      <trkpt lat="43.74315" lon="7.26241">
        <ele>384</ele>
        <time>2011-03-26T14:27:49Z</time>
      </trkpt>
      <trkpt lat="43.74322" lon="7.26252">
        <ele>384</ele>
        <time>2011-03-26T14:27:51Z</time>
      </trkpt>
      <trkpt lat="43.7433" lon="7.26263">
        <ele>382</ele>
        <time>2011-03-26T14:27:53Z</time>
      </trkpt>
      <trkpt lat="43.74338" lon="7.26276">
        <ele>382</ele>
        <time>2011-03-26T14:27:56Z</time>
      </trkpt>
      <trkpt lat="43.74344" lon="7.2629">
        <ele>382</ele>
        <time>2011-03-26T14:27:58Z</time>
      </trkpt>
      <trkpt lat="43.7435" lon="7.26305">
        <ele>382</ele>
        <time>2011-03-26T14:28:00Z</time>
      </trkpt>
      <trkpt lat="43.74351" lon="7.26318">
        <ele>382</ele>
        <time>2011-03-26T14:28:02Z</time>
      </trkpt>
      <trkpt lat="43.74351" lon="7.26334">
        <ele>383</ele>
        <time>2011-03-26T14:28:05Z</time>
      </trkpt>
      <trkpt lat="43.74355" lon="7.26348">
        <ele>383</ele>
        <time>2011-03-26T14:28:08Z</time>
      </trkpt>
      <trkpt lat="43.7436" lon="7.26361">
        <ele>382</ele>
        <time>2011-03-26T14:28:11Z</time>
      </trkpt>
      <trkpt lat="43.74364" lon="7.26375">
        <ele>383</ele>
        <time>2011-03-26T14:28:15Z</time>
      </trkpt>
      <trkpt lat="43.74369" lon="7.26386">
        <ele>384</ele>
        <time>2011-03-26T14:28:17Z</time>
      </trkpt>
      <trkpt lat="43.74373" lon="7.26397">
        <ele>385</ele>
        <time>2011-03-26T14:28:20Z</time>
      </trkpt>
      <trkpt lat="43.74378" lon="7.2641">
        <ele>386</ele>
        <time>2011-03-26T14:28:24Z</time>
      </trkpt>
      <trkpt lat="43.74383" lon="7.26423">
        <ele>387</ele>
        <time>2011-03-26T14:28:28Z</time>
      </trkpt>
      <trkpt lat="43.74389" lon="7.26433">
        <ele>387</ele>
        <time>2011-03-26T14:28:31Z</time>
      </trkpt>
      <trkpt lat="43.74394" lon="7.26444">
        <ele>387</ele>
        <time>2011-03-26T14:28:34Z</time>
      </trkpt>
      <trkpt lat="43.74396" lon="7.26457">
        <ele>387</ele>
        <time>2011-03-26T14:28:37Z</time>
      </trkpt>
      <trkpt lat="43.74397" lon="7.2647">
        <ele>386</ele>
        <time>2011-03-26T14:28:39Z</time>
      </trkpt>
      <trkpt lat="43.74396" lon="7.26483">
        <ele>386</ele>
        <time>2011-03-26T14:28:42Z</time>
      </trkpt>
      <trkpt lat="43.74393" lon="7.26497">
        <ele>386</ele>
        <time>2011-03-26T14:28:45Z</time>
      </trkpt>
      <trkpt lat="43.74392" lon="7.2651">
        <ele>385</ele>
        <time>2011-03-26T14:28:49Z</time>
      </trkpt>
      <trkpt lat="43.74392" lon="7.26523">
        <ele>385</ele>
        <time>2011-03-26T14:28:52Z</time>
      </trkpt>
      <trkpt lat="43.74393" lon="7.26536">
        <ele>385</ele>
        <time>2011-03-26T14:28:55Z</time>
      </trkpt>
      <trkpt lat="43.74395" lon="7.26549">
        <ele>385</ele>
        <time>2011-03-26T14:28:58Z</time>
      </trkpt>
      <trkpt lat="43.74396" lon="7.26562">
        <ele>384</ele>
        <time>2011-03-26T14:29:01Z</time>
      </trkpt>
      <trkpt lat="43.74398" lon="7.26575">
        <ele>385</ele>
        <time>2011-03-26T14:29:04Z</time>
      </trkpt>
      <trkpt lat="43.744" lon="7.26588">
        <ele>385</ele>
        <time>2011-03-26T14:29:07Z</time>
      </trkpt>
      <trkpt lat="43.74404" lon="7.26603">
        <ele>386</ele>
        <time>2011-03-26T14:29:10Z</time>
      </trkpt>
      <trkpt lat="43.74408" lon="7.26617">
        <ele>387</ele>
        <time>2011-03-26T14:29:13Z</time>
      </trkpt>
      <trkpt lat="43.74413" lon="7.26632">
        <ele>388</ele>
        <time>2011-03-26T14:29:15Z</time>
      </trkpt>
      <trkpt lat="43.74417" lon="7.26644">
        <ele>389</ele>
        <time>2011-03-26T14:29:18Z</time>
      </trkpt>
      <trkpt lat="43.74421" lon="7.26657">
        <ele>391</ele>
        <time>2011-03-26T14:29:20Z</time>
      </trkpt>
      <trkpt lat="43.74425" lon="7.2667">
        <ele>390</ele>
        <time>2011-03-26T14:29:22Z</time>
      </trkpt>
      <trkpt lat="43.7443" lon="7.26683">
        <ele>390</ele>
        <time>2011-03-26T14:29:24Z</time>
      </trkpt>
      <trkpt lat="43.74436" lon="7.26696">
        <ele>390</ele>
        <time>2011-03-26T14:29:27Z</time>
      </trkpt>
      <trkpt lat="43.74443" lon="7.26707">
        <ele>390</ele>
        <time>2011-03-26T14:29:29Z</time>
      </trkpt>
      <trkpt lat="43.74447" lon="7.26721">
        <ele>389</ele>
        <time>2011-03-26T14:29:31Z</time>
      </trkpt>
      <trkpt lat="43.74449" lon="7.26737">
        <ele>388</ele>
        <time>2011-03-26T14:29:33Z</time>
      </trkpt>
      <trkpt lat="43.74449" lon="7.26754">
        <ele>386</ele>
        <time>2011-03-26T14:29:36Z</time>
      </trkpt>
      <trkpt lat="43.74449" lon="7.26765">
        <ele>386</ele>
        <time>2011-03-26T14:29:37Z</time>
      </trkpt>
      <trkpt lat="43.74448" lon="7.2678">
        <ele>384</ele>
        <time>2011-03-26T14:29:39Z</time>
      </trkpt>
      <trkpt lat="43.74446" lon="7.26795">
        <ele>383</ele>
        <time>2011-03-26T14:29:42Z</time>
      </trkpt>
      <trkpt lat="43.74443" lon="7.2681">
        <ele>381</ele>
        <time>2011-03-26T14:29:44Z</time>
      </trkpt>
      <trkpt lat="43.7444" lon="7.26826">
        <ele>380</ele>
        <time>2011-03-26T14:29:46Z</time>
      </trkpt>
      <trkpt lat="43.74436" lon="7.26842">
        <ele>379</ele>
        <time>2011-03-26T14:29:48Z</time>
      </trkpt>
      <trkpt lat="43.74432" lon="7.26859">
        <ele>378</ele>
        <time>2011-03-26T14:29:51Z</time>
      </trkpt>
      <trkpt lat="43.74429" lon="7.26871">
        <ele>378</ele>
        <time>2011-03-26T14:29:52Z</time>
      </trkpt>
      <trkpt lat="43.74426" lon="7.26883">
        <ele>377</ele>
        <time>2011-03-26T14:29:54Z</time>
      </trkpt>
      <trkpt lat="43.74424" lon="7.26895">
        <ele>376</ele>
        <time>2011-03-26T14:29:55Z</time>
      </trkpt>
      <trkpt lat="43.74423" lon="7.26901">
        <ele>376</ele>
        <time>2011-03-26T14:29:56Z</time>
      </trkpt>
      <trkpt lat="43.74421" lon="7.26913">
        <ele>376</ele>
        <time>2011-03-26T14:29:58Z</time>
      </trkpt>
      <trkpt lat="43.74417" lon="7.26931">
        <ele>375</ele>
        <time>2011-03-26T14:30:00Z</time>
      </trkpt>
      <trkpt lat="43.74414" lon="7.26949">
        <ele>375</ele>
        <time>2011-03-26T14:30:02Z</time>
      </trkpt>
      <trkpt lat="43.74412" lon="7.26962">
        <ele>375</ele>
        <time>2011-03-26T14:30:03Z</time>
      </trkpt>
      <trkpt lat="43.74409" lon="7.26975">
        <ele>375</ele>
        <time>2011-03-26T14:30:05Z</time>
      </trkpt>
      <trkpt lat="43.74407" lon="7.2699">
        <ele>374</ele>
        <time>2011-03-26T14:30:06Z</time>
      </trkpt>
      <trkpt lat="43.74404" lon="7.27005">
        <ele>374</ele>
        <time>2011-03-26T14:30:08Z</time>
      </trkpt>
      <trkpt lat="43.74402" lon="7.27021">
        <ele>374</ele>
        <time>2011-03-26T14:30:09Z</time>
      </trkpt>
      <trkpt lat="43.74399" lon="7.27037">
        <ele>374</ele>
        <time>2011-03-26T14:30:11Z</time>
      </trkpt>
      <trkpt lat="43.74397" lon="7.27045">
        <ele>374</ele>
        <time>2011-03-26T14:30:12Z</time>
      </trkpt>
      <trkpt lat="43.74394" lon="7.27061">
        <ele>374</ele>
        <time>2011-03-26T14:30:13Z</time>
      </trkpt>
      <trkpt lat="43.74391" lon="7.27076">
        <ele>374</ele>
        <time>2011-03-26T14:30:15Z</time>
      </trkpt>
      <trkpt lat="43.74386" lon="7.27092">
        <ele>374</ele>
        <time>2011-03-26T14:30:16Z</time>
      </trkpt>
      <trkpt lat="43.74381" lon="7.2711">
        <ele>374</ele>
        <time>2011-03-26T14:30:18Z</time>
      </trkpt>
      <trkpt lat="43.74377" lon="7.27128">
        <ele>373</ele>
        <time>2011-03-26T14:30:19Z</time>
      </trkpt>
      <trkpt lat="43.74372" lon="7.27148">
        <ele>373</ele>
        <time>2011-03-26T14:30:21Z</time>
      </trkpt>
      <trkpt lat="43.74367" lon="7.27169">
        <ele>372</ele>
        <time>2011-03-26T14:30:22Z</time>
      </trkpt>
      <trkpt lat="43.7436" lon="7.2719">
        <ele>371</ele>
        <time>2011-03-26T14:30:24Z</time>
      </trkpt>
      <trkpt lat="43.74351" lon="7.27209">
        <ele>370</ele>
        <time>2011-03-26T14:30:26Z</time>
      </trkpt>
      <trkpt lat="43.74343" lon="7.27227">
        <ele>369</ele>
        <time>2011-03-26T14:30:27Z</time>
      </trkpt>
      <trkpt lat="43.74332" lon="7.27243">
        <ele>369</ele>
        <time>2011-03-26T14:30:29Z</time>
      </trkpt>
      <trkpt lat="43.74318" lon="7.27255">
        <ele>368</ele>
        <time>2011-03-26T14:30:30Z</time>
      </trkpt>
      <trkpt lat="43.74305" lon="7.27267">
        <ele>367</ele>
        <time>2011-03-26T14:30:32Z</time>
      </trkpt>
      <trkpt lat="43.74292" lon="7.2728">
        <ele>367</ele>
        <time>2011-03-26T14:30:33Z</time>
      </trkpt>
      <trkpt lat="43.74281" lon="7.27294">
        <ele>366</ele>
        <time>2011-03-26T14:30:35Z</time>
      </trkpt>
      <trkpt lat="43.74271" lon="7.2731">
        <ele>365</ele>
        <time>2011-03-26T14:30:36Z</time>
      </trkpt>
      <trkpt lat="43.74263" lon="7.27327">
        <ele>365</ele>
        <time>2011-03-26T14:30:38Z</time>
      </trkpt>
      <trkpt lat="43.74255" lon="7.27344">
        <ele>365</ele>
        <time>2011-03-26T14:30:39Z</time>
      </trkpt>
      <trkpt lat="43.74245" lon="7.27358">
        <ele>364</ele>
        <time>2011-03-26T14:30:41Z</time>
      </trkpt>
      <trkpt lat="43.74234" lon="7.27369">
        <ele>364</ele>
        <time>2011-03-26T14:30:42Z</time>
      </trkpt>
      <trkpt lat="43.74221" lon="7.2738">
        <ele>363</ele>
        <time>2011-03-26T14:30:44Z</time>
      </trkpt>
      <trkpt lat="43.74208" lon="7.27391">
        <ele>362</ele>
        <time>2011-03-26T14:30:45Z</time>
      </trkpt>
      <trkpt lat="43.74194" lon="7.27401">
        <ele>362</ele>
        <time>2011-03-26T14:30:47Z</time>
      </trkpt>
      <trkpt lat="43.74181" lon="7.2741">
        <ele>362</ele>
        <time>2011-03-26T14:30:48Z</time>
      </trkpt>
      <trkpt lat="43.74166" lon="7.27415">
        <ele>361</ele>
        <time>2011-03-26T14:30:50Z</time>
      </trkpt>
      <trkpt lat="43.7415" lon="7.27419">
        <ele>360</ele>
        <time>2011-03-26T14:30:51Z</time>
      </trkpt>
      <trkpt lat="43.74135" lon="7.27424">
        <ele>359</ele>
        <time>2011-03-26T14:30:53Z</time>
      </trkpt>
      <trkpt lat="43.7412" lon="7.2743">
        <ele>358</ele>
        <time>2011-03-26T14:30:54Z</time>
      </trkpt>
      <trkpt lat="43.74104" lon="7.27436">
        <ele>357</ele>
        <time>2011-03-26T14:30:56Z</time>
      </trkpt>
      <trkpt lat="43.74089" lon="7.27443">
        <ele>356</ele>
        <time>2011-03-26T14:30:58Z</time>
      </trkpt>
      <trkpt lat="43.74074" lon="7.2745">
        <ele>355</ele>
        <time>2011-03-26T14:30:59Z</time>
      </trkpt>
      <trkpt lat="43.74059" lon="7.27457">
        <ele>354</ele>
        <time>2011-03-26T14:31:00Z</time>
      </trkpt>
      <trkpt lat="43.74044" lon="7.27465">
        <ele>353</ele>
        <time>2011-03-26T14:31:02Z</time>
      </trkpt>
      <trkpt lat="43.74029" lon="7.27473">
        <ele>352</ele>
        <time>2011-03-26T14:31:03Z</time>
      </trkpt>
      <trkpt lat="43.74013" lon="7.27479">
        <ele>351</ele>
        <time>2011-03-26T14:31:05Z</time>
      </trkpt>
      <trkpt lat="43.73997" lon="7.27485">
        <ele>350</ele>
        <time>2011-03-26T14:31:06Z</time>
      </trkpt>
      <trkpt lat="43.73981" lon="7.2749">
        <ele>349</ele>
        <time>2011-03-26T14:31:08Z</time>
      </trkpt>
      <trkpt lat="43.73967" lon="7.27488">
        <ele>349</ele>
        <time>2011-03-26T14:31:10Z</time>
      </trkpt>
      <trkpt lat="43.73954" lon="7.27483">
        <ele>348</ele>
        <time>2011-03-26T14:31:11Z</time>
      </trkpt>
      <trkpt lat="43.73941" lon="7.27478">
        <ele>347</ele>
        <time>2011-03-26T14:31:12Z</time>
      </trkpt>
      <trkpt lat="43.73929" lon="7.27471">
        <ele>347</ele>
        <time>2011-03-26T14:31:14Z</time>
      </trkpt>
      <trkpt lat="43.73918" lon="7.27463">
        <ele>346</ele>
        <time>2011-03-26T14:31:15Z</time>
      </trkpt>
      <trkpt lat="43.73912" lon="7.27459">
        <ele>345</ele>
        <time>2011-03-26T14:31:16Z</time>
      </trkpt>
      <trkpt lat="43.739" lon="7.27451">
        <ele>344</ele>
        <time>2011-03-26T14:31:18Z</time>
      </trkpt>
      <trkpt lat="43.73894" lon="7.27446">
        <ele>344</ele>
        <time>2011-03-26T14:31:18Z</time>
      </trkpt>
      <trkpt lat="43.73882" lon="7.27437">
        <ele>343</ele>
        <time>2011-03-26T14:31:20Z</time>
      </trkpt>
      <trkpt lat="43.73873" lon="7.27425">
        <ele>342</ele>
        <time>2011-03-26T14:31:21Z</time>
      </trkpt>
      <trkpt lat="43.73866" lon="7.2741">
        <ele>341</ele>
        <time>2011-03-26T14:31:23Z</time>
      </trkpt>
      <trkpt lat="43.73861" lon="7.27393">
        <ele>339</ele>
        <time>2011-03-26T14:31:24Z</time>
      </trkpt>
      <trkpt lat="43.7386" lon="7.27376">
        <ele>338</ele>
        <time>2011-03-26T14:31:26Z</time>
      </trkpt>
      <trkpt lat="43.7386" lon="7.27358">
        <ele>336</ele>
        <time>2011-03-26T14:31:27Z</time>
      </trkpt>
      <trkpt lat="43.73863" lon="7.2734">
        <ele>335</ele>
        <time>2011-03-26T14:31:29Z</time>
      </trkpt>
      <trkpt lat="43.73868" lon="7.27322">
        <ele>334</ele>
        <time>2011-03-26T14:31:30Z</time>
      </trkpt>
      <trkpt lat="43.73875" lon="7.27306">
        <ele>333</ele>
        <time>2011-03-26T14:31:32Z</time>
      </trkpt>
      <trkpt lat="43.73881" lon="7.27294">
        <ele>332</ele>
        <time>2011-03-26T14:31:33Z</time>
      </trkpt>
      <trkpt lat="43.73885" lon="7.27285">
        <ele>330</ele>
        <time>2011-03-26T14:31:35Z</time>
      </trkpt>
      <trkpt lat="43.73874" lon="7.27284">
        <ele>327</ele>
        <time>2011-03-26T14:31:38Z</time>
      </trkpt>
      <trkpt lat="43.73866" lon="7.27293">
        <ele>326</ele>
        <time>2011-03-26T14:31:41Z</time>
      </trkpt>
      <trkpt lat="43.73858" lon="7.27303">
        <ele>325</ele>
        <time>2011-03-26T14:31:43Z</time>
      </trkpt>
      <trkpt lat="43.73849" lon="7.27314">
        <ele>323</ele>
        <time>2011-03-26T14:31:45Z</time>
      </trkpt>
      <trkpt lat="43.7384" lon="7.27326">
        <ele>322</ele>
        <time>2011-03-26T14:31:47Z</time>
      </trkpt>
      <trkpt lat="43.73832" lon="7.27336">
        <ele>322</ele>
        <time>2011-03-26T14:31:49Z</time>
      </trkpt>
      <trkpt lat="43.73828" lon="7.27341">
        <ele>322</ele>
        <time>2011-03-26T14:31:50Z</time>
      </trkpt>
      <trkpt lat="43.7382" lon="7.27351">
        <ele>321</ele>
        <time>2011-03-26T14:31:51Z</time>
      </trkpt>
      <trkpt lat="43.73812" lon="7.27363">
        <ele>321</ele>
        <time>2011-03-26T14:31:53Z</time>
      </trkpt>
      <trkpt lat="43.73806" lon="7.27377">
        <ele>320</ele>
        <time>2011-03-26T14:31:54Z</time>
      </trkpt>
      <trkpt lat="43.73803" lon="7.27392">
        <ele>320</ele>
        <time>2011-03-26T14:31:56Z</time>
      </trkpt>
      <trkpt lat="43.73805" lon="7.27409">
        <ele>319</ele>
        <time>2011-03-26T14:31:57Z</time>
      </trkpt>
      <trkpt lat="43.73811" lon="7.27425">
        <ele>318</ele>
        <time>2011-03-26T14:31:59Z</time>
      </trkpt>
      <trkpt lat="43.73818" lon="7.27438">
        <ele>317</ele>
        <time>2011-03-26T14:32:00Z</time>
      </trkpt>
      <trkpt lat="43.73827" lon="7.27451">
        <ele>316</ele>
        <time>2011-03-26T14:32:02Z</time>
      </trkpt>
      <trkpt lat="43.73835" lon="7.27464">
        <ele>314</ele>
        <time>2011-03-26T14:32:03Z</time>
      </trkpt>
      <trkpt lat="43.73844" lon="7.27477">
        <ele>313</ele>
        <time>2011-03-26T14:32:05Z</time>
      </trkpt>
      <trkpt lat="43.73854" lon="7.2749">
        <ele>311</ele>
        <time>2011-03-26T14:32:06Z</time>
      </trkpt>
      <trkpt lat="43.73864" lon="7.27503">
        <ele>310</ele>
        <time>2011-03-26T14:32:08Z</time>
      </trkpt>
      <trkpt lat="43.73873" lon="7.27516">
        <ele>308</ele>
        <time>2011-03-26T14:32:09Z</time>
      </trkpt>
      <trkpt lat="43.73882" lon="7.2753">
        <ele>307</ele>
        <time>2011-03-26T14:32:11Z</time>
      </trkpt>
      <trkpt lat="43.73886" lon="7.27548">
        <ele>306</ele>
        <time>2011-03-26T14:32:12Z</time>
      </trkpt>
      <trkpt lat="43.73886" lon="7.27564">
        <ele>305</ele>
        <time>2011-03-26T14:32:14Z</time>
      </trkpt>
      <trkpt lat="43.73881" lon="7.2758">
        <ele>304</ele>
        <time>2011-03-26T14:32:15Z</time>
      </trkpt>
      <trkpt lat="43.73876" lon="7.27593">
        <ele>304</ele>
        <time>2011-03-26T14:32:17Z</time>
      </trkpt>
      <trkpt lat="43.73868" lon="7.27604">
        <ele>304</ele>
        <time>2011-03-26T14:32:18Z</time>
      </trkpt>
      <trkpt lat="43.73858" lon="7.27614">
        <ele>304</ele>
        <time>2011-03-26T14:32:20Z</time>
      </trkpt>
      <trkpt lat="43.73847" lon="7.27624">
        <ele>304</ele>
        <time>2011-03-26T14:32:21Z</time>
      </trkpt>
      <trkpt lat="43.7384" lon="7.27637">
        <ele>305</ele>
        <time>2011-03-26T14:32:23Z</time>
      </trkpt>
      <trkpt lat="43.73836" lon="7.27654">
        <ele>304</ele>
        <time>2011-03-26T14:32:24Z</time>
      </trkpt>
      <trkpt lat="43.73838" lon="7.27672">
        <ele>303</ele>
        <time>2011-03-26T14:32:26Z</time>
      </trkpt>
      <trkpt lat="43.73842" lon="7.27689">
        <ele>301</ele>
        <time>2011-03-26T14:32:27Z</time>
      </trkpt>
      <trkpt lat="43.73852" lon="7.27698">
        <ele>300</ele>
        <time>2011-03-26T14:32:29Z</time>
      </trkpt>
      <trkpt lat="43.73864" lon="7.27704">
        <ele>299</ele>
        <time>2011-03-26T14:32:30Z</time>
      </trkpt>
      <trkpt lat="43.73869" lon="7.27705">
        <ele>298</ele>
        <time>2011-03-26T14:32:31Z</time>
      </trkpt>
      <trkpt lat="43.73881" lon="7.27708">
        <ele>298</ele>
        <time>2011-03-26T14:32:32Z</time>
      </trkpt>
      <trkpt lat="43.73893" lon="7.2771">
        <ele>297</ele>
        <time>2011-03-26T14:32:34Z</time>
      </trkpt>
      <trkpt lat="43.73906" lon="7.27712">
        <ele>296</ele>
        <time>2011-03-26T14:32:35Z</time>
      </trkpt>
      <trkpt lat="43.73918" lon="7.27714">
        <ele>296</ele>
        <time>2011-03-26T14:32:37Z</time>
      </trkpt>
      <trkpt lat="43.73931" lon="7.27716">
        <ele>295</ele>
        <time>2011-03-26T14:32:38Z</time>
      </trkpt>
      <trkpt lat="43.73943" lon="7.27718">
        <ele>295</ele>
        <time>2011-03-26T14:32:40Z</time>
      </trkpt>
      <trkpt lat="43.73951" lon="7.27725">
        <ele>294</ele>
        <time>2011-03-26T14:32:41Z</time>
      </trkpt>
      <trkpt lat="43.73952" lon="7.27742">
        <ele>293</ele>
        <time>2011-03-26T14:32:44Z</time>
      </trkpt>
      <trkpt lat="43.73946" lon="7.27752">
        <ele>292</ele>
        <time>2011-03-26T14:32:45Z</time>
      </trkpt>
      <trkpt lat="43.73941" lon="7.27757">
        <ele>292</ele>
        <time>2011-03-26T14:32:46Z</time>
      </trkpt>
      <trkpt lat="43.73931" lon="7.27767">
        <ele>292</ele>
        <time>2011-03-26T14:32:47Z</time>
      </trkpt>
      <trkpt lat="43.7392" lon="7.27775">
        <ele>291</ele>
        <time>2011-03-26T14:32:49Z</time>
      </trkpt>
      <trkpt lat="43.73908" lon="7.27783">
        <ele>290</ele>
        <time>2011-03-26T14:32:51Z</time>
      </trkpt>
      <trkpt lat="43.73896" lon="7.27788">
        <ele>289</ele>
        <time>2011-03-26T14:32:52Z</time>
      </trkpt>
      <trkpt lat="43.73882" lon="7.27793">
        <ele>289</ele>
        <time>2011-03-26T14:32:54Z</time>
      </trkpt>
      <trkpt lat="43.73868" lon="7.27797">
        <ele>288</ele>
        <time>2011-03-26T14:32:55Z</time>
      </trkpt>
      <trkpt lat="43.73854" lon="7.27802">
        <ele>287</ele>
        <time>2011-03-26T14:32:57Z</time>
      </trkpt>
      <trkpt lat="43.7384" lon="7.27808">
        <ele>286</ele>
        <time>2011-03-26T14:32:58Z</time>
      </trkpt>
      <trkpt lat="43.73825" lon="7.27814">
        <ele>286</ele>
        <time>2011-03-26T14:33:00Z</time>
      </trkpt>
      <trkpt lat="43.73811" lon="7.27821">
        <ele>285</ele>
        <time>2011-03-26T14:33:01Z</time>
      </trkpt>
      <trkpt lat="43.73797" lon="7.27828">
        <ele>284</ele>
        <time>2011-03-26T14:33:03Z</time>
      </trkpt>
      <trkpt lat="43.73782" lon="7.27835">
        <ele>283</ele>
        <time>2011-03-26T14:33:04Z</time>
      </trkpt>
      <trkpt lat="43.73768" lon="7.27843">
        <ele>282</ele>
        <time>2011-03-26T14:33:06Z</time>
      </trkpt>
      <trkpt lat="43.73753" lon="7.27851">
        <ele>280</ele>
        <time>2011-03-26T14:33:07Z</time>
      </trkpt>
      <trkpt lat="43.73739" lon="7.27859">
        <ele>279</ele>
        <time>2011-03-26T14:33:09Z</time>
      </trkpt>
      <trkpt lat="43.73724" lon="7.27867">
        <ele>277</ele>
        <time>2011-03-26T14:33:10Z</time>
      </trkpt>
      <trkpt lat="43.7371" lon="7.27876">
        <ele>276</ele>
        <time>2011-03-26T14:33:12Z</time>
      </trkpt>
      <trkpt lat="43.73695" lon="7.27884">
        <ele>275</ele>
        <time>2011-03-26T14:33:13Z</time>
      </trkpt>
      <trkpt lat="43.73681" lon="7.27894">
        <ele>273</ele>
        <time>2011-03-26T14:33:15Z</time>
      </trkpt>
      <trkpt lat="43.73666" lon="7.27906">
        <ele>272</ele>
        <time>2011-03-26T14:33:16Z</time>
      </trkpt>
      <trkpt lat="43.73653" lon="7.27918">
        <ele>271</ele>
        <time>2011-03-26T14:33:18Z</time>
      </trkpt>
      <trkpt lat="43.73642" lon="7.27929">
        <ele>270</ele>
        <time>2011-03-26T14:33:19Z</time>
      </trkpt>
      <trkpt lat="43.7363" lon="7.27935">
        <ele>269</ele>
        <time>2011-03-26T14:33:21Z</time>
      </trkpt>
      <trkpt lat="43.73618" lon="7.2793">
        <ele>268</ele>
        <time>2011-03-26T14:33:23Z</time>
      </trkpt>
      <trkpt lat="43.73605" lon="7.27923">
        <ele>267</ele>
        <time>2011-03-26T14:33:24Z</time>
      </trkpt>
      <trkpt lat="43.73591" lon="7.27917">
        <ele>267</ele>
        <time>2011-03-26T14:33:26Z</time>
      </trkpt>
      <trkpt lat="43.73576" lon="7.27913">
        <ele>266</ele>
        <time>2011-03-26T14:33:27Z</time>
      </trkpt>
      <trkpt lat="43.73563" lon="7.27909">
        <ele>265</ele>
        <time>2011-03-26T14:33:29Z</time>
      </trkpt>
      <trkpt lat="43.7355" lon="7.27902">
        <ele>265</ele>
        <time>2011-03-26T14:33:30Z</time>
      </trkpt>
      <trkpt lat="43.73539" lon="7.27892">
        <ele>265</ele>
        <time>2011-03-26T14:33:32Z</time>
      </trkpt>
      <trkpt lat="43.73526" lon="7.27883">
        <ele>264</ele>
        <time>2011-03-26T14:33:33Z</time>
      </trkpt>
      <trkpt lat="43.73512" lon="7.27875">
        <ele>264</ele>
        <time>2011-03-26T14:33:35Z</time>
      </trkpt>
      <trkpt lat="43.73497" lon="7.27873">
        <ele>262</ele>
        <time>2011-03-26T14:33:36Z</time>
      </trkpt>
      <trkpt lat="43.73482" lon="7.27867">
        <ele>261</ele>
        <time>2011-03-26T14:33:38Z</time>
      </trkpt>
      <trkpt lat="43.73469" lon="7.27858">
        <ele>260</ele>
        <time>2011-03-26T14:33:39Z</time>
      </trkpt>
      <trkpt lat="43.73456" lon="7.27848">
        <ele>259</ele>
        <time>2011-03-26T14:33:41Z</time>
      </trkpt>
      <trkpt lat="43.73444" lon="7.27841">
        <ele>258</ele>
        <time>2011-03-26T14:33:42Z</time>
      </trkpt>
      <trkpt lat="43.73433" lon="7.27837">
        <ele>257</ele>
        <time>2011-03-26T14:33:44Z</time>
      </trkpt>
      <trkpt lat="43.73422" lon="7.27833">
        <ele>256</ele>
        <time>2011-03-26T14:33:45Z</time>
      </trkpt>
      <trkpt lat="43.7341" lon="7.2783">
        <ele>255</ele>
        <time>2011-03-26T14:33:47Z</time>
      </trkpt>
      <trkpt lat="43.73398" lon="7.27824">
        <ele>254</ele>
        <time>2011-03-26T14:33:48Z</time>
      </trkpt>
      <trkpt lat="43.73393" lon="7.27819">
        <ele>253</ele>
        <time>2011-03-26T14:33:49Z</time>
      </trkpt>
      <trkpt lat="43.73382" lon="7.2781">
        <ele>252</ele>
        <time>2011-03-26T14:33:51Z</time>
      </trkpt>
      <trkpt lat="43.73374" lon="7.27798">
        <ele>250</ele>
        <time>2011-03-26T14:33:52Z</time>
      </trkpt>
      <trkpt lat="43.73366" lon="7.27784">
        <ele>248</ele>
        <time>2011-03-26T14:33:54Z</time>
      </trkpt>
      <trkpt lat="43.73358" lon="7.27769">
        <ele>245</ele>
        <time>2011-03-26T14:33:55Z</time>
      </trkpt>
      <trkpt lat="43.73353" lon="7.27753">
        <ele>243</ele>
        <time>2011-03-26T14:33:57Z</time>
      </trkpt>
      <trkpt lat="43.73349" lon="7.27737">
        <ele>241</ele>
        <time>2011-03-26T14:33:58Z</time>
      </trkpt>
      <trkpt lat="43.73345" lon="7.2772">
        <ele>239</ele>
        <time>2011-03-26T14:33:59Z</time>
      </trkpt>
      <trkpt lat="43.73341" lon="7.27703">
        <ele>237</ele>
        <time>2011-03-26T14:34:01Z</time>
      </trkpt>
      <trkpt lat="43.73336" lon="7.27687">
        <ele>236</ele>
        <time>2011-03-26T14:34:02Z</time>
      </trkpt>
      <trkpt lat="43.7333" lon="7.27672">
        <ele>235</ele>
        <time>2011-03-26T14:34:04Z</time>
      </trkpt>
      <trkpt lat="43.73323" lon="7.27657">
        <ele>234</ele>
        <time>2011-03-26T14:34:05Z</time>
      </trkpt>
      <trkpt lat="43.73317" lon="7.27643">
        <ele>234</ele>
        <time>2011-03-26T14:34:07Z</time>
      </trkpt>
      <trkpt lat="43.73309" lon="7.27633">
        <ele>233</ele>
        <time>2011-03-26T14:34:08Z</time>
      </trkpt>
      <trkpt lat="43.733" lon="7.27625">
        <ele>232</ele>
        <time>2011-03-26T14:34:10Z</time>
      </trkpt>
      <trkpt lat="43.73291" lon="7.27617">
        <ele>231</ele>
        <time>2011-03-26T14:34:11Z</time>
      </trkpt>
      <trkpt lat="43.73281" lon="7.27608">
        <ele>231</ele>
        <time>2011-03-26T14:34:13Z</time>
      </trkpt>
      <trkpt lat="43.73271" lon="7.27599">
        <ele>231</ele>
        <time>2011-03-26T14:34:16Z</time>
      </trkpt>
      <trkpt lat="43.73262" lon="7.27591">
        <ele>231</ele>
        <time>2011-03-26T14:34:18Z</time>
      </trkpt>
      <trkpt lat="43.73253" lon="7.27585">
        <ele>232</ele>
        <time>2011-03-26T14:34:20Z</time>
      </trkpt>
      <trkpt lat="43.73243" lon="7.27581">
        <ele>232</ele>
        <time>2011-03-26T14:34:22Z</time>
      </trkpt>
      <trkpt lat="43.73234" lon="7.27577">
        <ele>232</ele>
        <time>2011-03-26T14:34:24Z</time>
      </trkpt>
      <trkpt lat="43.73225" lon="7.27575">
        <ele>233</ele>
        <time>2011-03-26T14:34:27Z</time>
      </trkpt>
      <trkpt lat="43.73215" lon="7.27572">
        <ele>234</ele>
        <time>2011-03-26T14:34:29Z</time>
      </trkpt>
      <trkpt lat="43.73206" lon="7.27573">
        <ele>234</ele>
        <time>2011-03-26T14:34:31Z</time>
      </trkpt>
      <trkpt lat="43.73193" lon="7.27572">
        <ele>235</ele>
        <time>2011-03-26T14:34:33Z</time>
      </trkpt>
      <trkpt lat="43.7318" lon="7.27572">
        <ele>236</ele>
        <time>2011-03-26T14:34:35Z</time>
      </trkpt>
      <trkpt lat="43.73168" lon="7.27572">
        <ele>236</ele>
        <time>2011-03-26T14:34:38Z</time>
      </trkpt>
      <trkpt lat="43.73157" lon="7.27571">
        <ele>236</ele>
        <time>2011-03-26T14:34:40Z</time>
      </trkpt>
      <trkpt lat="43.73145" lon="7.2757">
        <ele>235</ele>
        <time>2011-03-26T14:34:42Z</time>
      </trkpt>
      <trkpt lat="43.73136" lon="7.27569">
        <ele>233</ele>
        <time>2011-03-26T14:34:43Z</time>
      </trkpt>
      <trkpt lat="43.73123" lon="7.27568">
        <ele>231</ele>
        <time>2011-03-26T14:34:46Z</time>
      </trkpt>
      <trkpt lat="43.7311" lon="7.27569">
        <ele>228</ele>
        <time>2011-03-26T14:34:48Z</time>
      </trkpt>
      <trkpt lat="43.73099" lon="7.27573">
        <ele>226</ele>
        <time>2011-03-26T14:34:50Z</time>
      </trkpt>
      <trkpt lat="43.73088" lon="7.27577">
        <ele>225</ele>
        <time>2011-03-26T14:34:53Z</time>
      </trkpt>
      <trkpt lat="43.73077" lon="7.27582">
        <ele>225</ele>
        <time>2011-03-26T14:34:55Z</time>
      </trkpt>
      <trkpt lat="43.73068" lon="7.27586">
        <ele>225</ele>
        <time>2011-03-26T14:34:57Z</time>
      </trkpt>
      <trkpt lat="43.73059" lon="7.2759">
        <ele>224</ele>
        <time>2011-03-26T14:35:00Z</time>
      </trkpt>
      <trkpt lat="43.7305" lon="7.27595">
        <ele>224</ele>
        <time>2011-03-26T14:35:02Z</time>
      </trkpt>
      <trkpt lat="43.7304" lon="7.276">
        <ele>223</ele>
        <time>2011-03-26T14:35:05Z</time>
      </trkpt>
      <trkpt lat="43.7303" lon="7.27604">
        <ele>222</ele>
        <time>2011-03-26T14:35:08Z</time>
      </trkpt>
      <trkpt lat="43.73021" lon="7.27609">
        <ele>222</ele>
        <time>2011-03-26T14:35:11Z</time>
      </trkpt>
      <trkpt lat="43.73011" lon="7.27614">
        <ele>221</ele>
        <time>2011-03-26T14:35:14Z</time>
      </trkpt>
      <trkpt lat="43.73003" lon="7.27621">
        <ele>220</ele>
        <time>2011-03-26T14:35:17Z</time>
      </trkpt>
      <trkpt lat="43.72995" lon="7.27628">
        <ele>220</ele>
        <time>2011-03-26T14:35:20Z</time>
      </trkpt>
      <trkpt lat="43.72985" lon="7.27635">
        <ele>221</ele>
        <time>2011-03-26T14:35:23Z</time>
      </trkpt>
      <trkpt lat="43.72974" lon="7.2764">
        <ele>222</ele>
        <time>2011-03-26T14:35:26Z</time>
      </trkpt>
      <trkpt lat="43.72964" lon="7.27649">
        <ele>222</ele>
        <time>2011-03-26T14:35:29Z</time>
      </trkpt>
      <trkpt lat="43.72959" lon="7.27663">
        <ele>222</ele>
        <time>2011-03-26T14:35:32Z</time>
      </trkpt>
      <trkpt lat="43.72956" lon="7.27675">
        <ele>222</ele>
        <time>2011-03-26T14:35:36Z</time>
      </trkpt>
      <trkpt lat="43.72958" lon="7.2769">
        <ele>223</ele>
        <time>2011-03-26T14:35:42Z</time>
      </trkpt>
      <trkpt lat="43.72961" lon="7.27702">
        <ele>224</ele>
        <time>2011-03-26T14:35:48Z</time>
      </trkpt>
      <trkpt lat="43.72964" lon="7.27714">
        <ele>224</ele>
        <time>2011-03-26T14:35:54Z</time>
      </trkpt>
      <trkpt lat="43.72966" lon="7.27727">
        <ele>224</ele>
        <time>2011-03-26T14:35:59Z</time>
      </trkpt>
      <trkpt lat="43.72968" lon="7.2774">
        <ele>223</ele>
        <time>2011-03-26T14:36:04Z</time>
      </trkpt>
      <trkpt lat="43.72968" lon="7.27742">
        <ele>223</ele>
        <time>2011-03-26T14:36:05Z</time>
      </trkpt>
      <trkpt lat="43.72969" lon="7.27756">
        <ele>224</ele>
        <time>2011-03-26T14:36:09Z</time>
      </trkpt>
      <trkpt lat="43.72967" lon="7.27768">
        <ele>226</ele>
        <time>2011-03-26T14:36:14Z</time>
      </trkpt>
      <trkpt lat="43.72963" lon="7.27781">
        <ele>228</ele>
        <time>2011-03-26T14:36:19Z</time>
      </trkpt>
      <trkpt lat="43.72954" lon="7.27789">
        <ele>228</ele>
        <time>2011-03-26T14:36:24Z</time>
      </trkpt>
      <trkpt lat="43.72947" lon="7.27794">
        <ele>228</ele>
        <time>2011-03-26T14:36:28Z</time>
      </trkpt>
      <trkpt lat="43.72941" lon="7.27806">
        <ele>226</ele>
        <time>2011-03-26T14:36:35Z</time>
      </trkpt>
      <trkpt lat="43.72941" lon="7.27806">
        <ele>226</ele>
        <time>2011-03-26T14:36:37Z</time>
      </trkpt>
    </trkseg>
  </trk>
</gpx>